UAE7 OMDB-EGLL
Flight info
| Callsign | UAE7 |
|---|---|
| Flight time | N/A |
| Altitude | 36000 |
| Route | ANVIX R401 GIDIS G783 RIGIL M628 PEKEM/N0458F280 Q332 MEDPO Y511 ITRUX/N0501F360 Y511 PMA DCT WEJ/N0499F380 L677 CVO L617 TANSA UL613 KOR DCT DIMIS DCT VAKSU DCT MONFA/N0496F400 DCT SOTOV DCT KPT DCT KUNOD DCT LIRSU DCT DENUT L608 LOGAN |
| Aircraft | A388/J-SADE2E3FGHIJ3J4J5M1RWXY/LB1D1 |
Departure
| Time | 2026-04-21 22:07 |
|---|---|
| Airport | Dubai International Airport (OMDB) |
Arrival
| Time | N/A |
|---|---|
| Airport | London Heathrow Airport (EGLL) |
| Time | Latitude | Longitude | Altitude | Speed | Heading |
|---|---|---|---|---|---|
| 2026-04-21 22:00 | 25.24129 | 55.37572 | 23 ft | 1 kts | 301° |
| 2026-04-21 22:00 | 25.24124 | 55.37581 | 26 ft | 4 kts | 301° |
| 2026-04-21 22:00 | 25.24110 | 55.37606 | 31 ft | 4 kts | 297° |
| 2026-04-21 22:01 | 25.24098 | 55.37633 | 32 ft | 4 kts | 306° |
| 2026-04-21 22:01 | 25.24080 | 55.37646 | 32 ft | 4 kts | 351° |
| 2026-04-21 22:01 | 25.24058 | 55.37640 | 31 ft | 4 kts | 40° |
| 2026-04-21 22:01 | 25.24045 | 55.37628 | 31 ft | 1 kts | 31° |
| 2026-04-21 22:03 | 25.24060 | 55.37638 | 31 ft | 5 kts | 29° |
| 2026-04-21 22:03 | 25.24098 | 55.37663 | 33 ft | 8 kts | 32° |
| 2026-04-21 22:03 | 25.24154 | 55.37702 | 29 ft | 11 kts | 31° |
| 2026-04-21 22:03 | 25.24224 | 55.37747 | 30 ft | 13 kts | 31° |
| 2026-04-21 22:04 | 25.24303 | 55.37803 | 26 ft | 14 kts | 33° |
| 2026-04-21 22:04 | 25.24386 | 55.37866 | 28 ft | 15 kts | 36° |
| 2026-04-21 22:04 | 25.24467 | 55.37931 | 30 ft | 14 kts | 35° |
| 2026-04-21 22:04 | 25.24557 | 55.37994 | 28 ft | 17 kts | 31° |
| 2026-04-21 22:05 | 25.24658 | 55.38062 | 29 ft | 17 kts | 31° |
| 2026-04-21 22:05 | 25.24736 | 55.38109 | 31 ft | 9 kts | 5° |
| 2026-04-21 22:05 | 25.24771 | 55.38090 | 31 ft | 1 kts | 297° |
| 2026-04-21 22:05 | 25.24773 | 55.38086 | 31 ft | 0 kts | 305° |
| 2026-04-21 22:06 | 25.24793 | 55.38053 | 30 ft | 26 kts | 302° |
| 2026-04-21 22:06 | 25.25024 | 55.37633 | 31 ft | 100 kts | 302° |
| 2026-04-21 22:06 | 25.25491 | 55.36796 | 29 ft | 154 kts | 301° |
| 2026-04-21 22:07 | 25.26119 | 55.35677 | 66 ft | 183 kts | 302° |
| 2026-04-21 22:07 | 25.26767 | 55.34499 | 578 ft | 181 kts | 302° |
| 2026-04-21 22:07 | 25.27446 | 55.33273 | 854 ft | 192 kts | 302° |
| 2026-04-21 22:07 | 25.28155 | 55.31996 | 1205 ft | 198 kts | 302° |
| 2026-04-21 22:08 | 25.28882 | 55.30686 | 1552 ft | 201 kts | 302° |
| 2026-04-21 22:08 | 25.29291 | 55.29211 | 1860 ft | 204 kts | 266° |
| 2026-04-21 22:08 | 25.28877 | 55.27749 | 2228 ft | 201 kts | 241° |
| 2026-04-21 22:08 | 25.28223 | 55.26320 | 2355 ft | 215 kts | 243° |
| 2026-04-21 22:09 | 25.27557 | 55.24791 | 2436 ft | 226 kts | 243° |
| 2026-04-21 22:09 | 25.26874 | 55.23186 | 2518 ft | 235 kts | 243° |
| 2026-04-21 22:09 | 25.26168 | 55.21517 | 2572 ft | 246 kts | 244° |
| 2026-04-21 22:09 | 25.25429 | 55.19770 | 3046 ft | 250 kts | 244° |
| 2026-04-21 22:10 | 25.24638 | 55.18098 | 3780 ft | 243 kts | 230° |
| 2026-04-21 22:10 | 25.23336 | 55.16956 | 4399 ft | 240 kts | 200° |
| 2026-04-21 22:10 | 25.21707 | 55.16711 | 5050 ft | 237 kts | 175° |
| 2026-04-21 22:10 | 25.20049 | 55.16889 | 5396 ft | 250 kts | 169° |
| 2026-04-21 22:11 | 25.18451 | 55.17709 | 5847 ft | 259 kts | 140° |
| 2026-04-21 22:11 | 25.17363 | 55.19308 | 6372 ft | 266 kts | 120° |
| 2026-04-21 22:11 | 25.16481 | 55.21180 | 6584 ft | 284 kts | 119° |
| 2026-04-21 22:11 | 25.15559 | 55.23145 | 6936 ft | 290 kts | 119° |
| 2026-04-21 22:12 | 25.14618 | 55.25143 | 7395 ft | 295 kts | 119° |
| 2026-04-21 22:12 | 25.13728 | 55.27192 | 8044 ft | 296 kts | 117° |
| 2026-04-21 22:12 | 25.12875 | 55.29279 | 8628 ft | 300 kts | 116° |
| 2026-04-21 22:12 | 25.12016 | 55.31391 | 9232 ft | 303 kts | 117° |
| 2026-04-21 22:13 | 25.11139 | 55.33525 | 9811 ft | 307 kts | 117° |
| 2026-04-21 22:13 | 25.10246 | 55.35675 | 10099 ft | 321 kts | 117° |
| 2026-04-21 22:13 | 25.09284 | 55.37974 | 10259 ft | 338 kts | 117° |
| 2026-04-21 22:13 | 25.08269 | 55.40393 | 10405 ft | 355 kts | 117° |
| 2026-04-21 22:14 | 25.07223 | 55.42891 | 10778 ft | 362 kts | 117° |
| 2026-04-21 22:14 | 25.06162 | 55.45428 | 11319 ft | 365 kts | 117° |
| 2026-04-21 22:14 | 25.05088 | 55.47993 | 11833 ft | 369 kts | 117° |
| 2026-04-21 22:14 | 25.04006 | 55.50574 | 12362 ft | 373 kts | 117° |
| 2026-04-21 22:15 | 25.02694 | 55.53036 | 12861 ft | 373 kts | 132° |
| 2026-04-21 22:15 | 25.00743 | 55.54903 | 13345 ft | 372 kts | 152° |
| 2026-04-21 22:15 | 24.98354 | 55.55944 | 13823 ft | 369 kts | 172° |
| 2026-04-21 22:15 | 24.95812 | 55.56204 | 14325 ft | 368 kts | 182° |
| 2026-04-21 22:16 | 24.93306 | 55.56235 | 14793 ft | 370 kts | 183° |
| 2026-04-21 22:16 | 24.90718 | 55.56274 | 15285 ft | 374 kts | 182° |
| 2026-04-21 22:16 | 24.88103 | 55.56372 | 15774 ft | 377 kts | 180° |
| 2026-04-21 22:16 | 24.85473 | 55.56519 | 16254 ft | 380 kts | 180° |
| 2026-04-21 22:17 | 24.82821 | 55.56693 | 16722 ft | 383 kts | 179° |
| 2026-04-21 22:17 | 24.80184 | 55.56876 | 17197 ft | 386 kts | 179° |
| 2026-04-21 22:17 | 24.77491 | 55.57065 | 17636 ft | 390 kts | 179° |
| 2026-04-21 22:17 | 24.74770 | 55.57256 | 18100 ft | 393 kts | 179° |
| 2026-04-21 22:18 | 24.72035 | 55.57447 | 18507 ft | 395 kts | 179° |
| 2026-04-21 22:18 | 24.69289 | 55.57639 | 18916 ft | 397 kts | 179° |
| 2026-04-21 22:18 | 24.66531 | 55.57830 | 19340 ft | 399 kts | 179° |
| 2026-04-21 22:18 | 24.63750 | 55.58023 | 19743 ft | 400 kts | 180° |
| 2026-04-21 22:19 | 24.60962 | 55.58217 | 20141 ft | 402 kts | 180° |
| 2026-04-21 22:19 | 24.58160 | 55.58411 | 20541 ft | 404 kts | 180° |
| 2026-04-21 22:19 | 24.55340 | 55.58606 | 20934 ft | 406 kts | 180° |
| 2026-04-21 22:19 | 24.52512 | 55.58801 | 21312 ft | 408 kts | 180° |
| 2026-04-21 22:20 | 24.49669 | 55.58998 | 21721 ft | 410 kts | 180° |
| 2026-04-21 22:20 | 24.46813 | 55.59195 | 22099 ft | 412 kts | 180° |
| 2026-04-21 22:20 | 24.43945 | 55.59394 | 22481 ft | 414 kts | 180° |
| 2026-04-21 22:20 | 24.41063 | 55.59593 | 22854 ft | 416 kts | 180° |
| 2026-04-21 22:21 | 24.38169 | 55.59793 | 23238 ft | 418 kts | 180° |
| 2026-04-21 22:21 | 24.35293 | 55.59991 | 23576 ft | 420 kts | 180° |
| 2026-04-21 22:21 | 24.32378 | 55.60192 | 23866 ft | 422 kts | 180° |
| 2026-04-21 22:21 | 24.29440 | 55.60390 | 24169 ft | 423 kts | 181° |
| 2026-04-21 22:22 | 24.26502 | 55.60337 | 24466 ft | 422 kts | 188° |
| 2026-04-21 22:22 | 24.23596 | 55.59890 | 24775 ft | 421 kts | 195° |
| 2026-04-21 22:22 | 24.20748 | 55.59089 | 25064 ft | 421 kts | 199° |
| 2026-04-21 22:22 | 24.17915 | 55.58218 | 25378 ft | 424 kts | 198° |
| 2026-04-21 22:23 | 24.15059 | 55.57360 | 25701 ft | 426 kts | 198° |
| 2026-04-21 22:23 | 24.12189 | 55.56504 | 26038 ft | 429 kts | 198° |
| 2026-04-21 22:23 | 24.09301 | 55.55644 | 26391 ft | 431 kts | 198° |
| 2026-04-21 22:23 | 24.06398 | 55.54778 | 26757 ft | 434 kts | 198° |
| 2026-04-21 22:24 | 24.03469 | 55.53904 | 27124 ft | 437 kts | 198° |
| 2026-04-21 22:24 | 24.00531 | 55.53027 | 27491 ft | 439 kts | 198° |
| 2026-04-21 22:24 | 23.97565 | 55.52144 | 27851 ft | 443 kts | 198° |
| 2026-04-21 22:24 | 23.94582 | 55.51258 | 28171 ft | 447 kts | 198° |
| 2026-04-21 22:25 | 23.91567 | 55.50363 | 28556 ft | 449 kts | 198° |
| 2026-04-21 22:25 | 23.88533 | 55.49463 | 28925 ft | 452 kts | 198° |
| 2026-04-21 22:25 | 23.85530 | 55.48572 | 29292 ft | 455 kts | 198° |
| 2026-04-21 22:25 | 23.82463 | 55.47662 | 29662 ft | 458 kts | 198° |
| 2026-04-21 22:26 | 23.79370 | 55.46744 | 30005 ft | 461 kts | 198° |
| 2026-04-21 22:26 | 23.76272 | 55.45824 | 30342 ft | 464 kts | 198° |
| 2026-04-21 22:26 | 23.73145 | 55.44895 | 30683 ft | 466 kts | 198° |
| 2026-04-21 22:26 | 23.70007 | 55.43964 | 31001 ft | 469 kts | 198° |
| 2026-04-21 22:27 | 23.66848 | 55.43027 | 31325 ft | 471 kts | 198° |
| 2026-04-21 22:27 | 23.63667 | 55.42085 | 31642 ft | 474 kts | 198° |
| 2026-04-21 22:27 | 23.60468 | 55.41137 | 31964 ft | 477 kts | 198° |
| 2026-04-21 22:27 | 23.57266 | 55.40189 | 32273 ft | 479 kts | 199° |
| 2026-04-21 22:28 | 23.54032 | 55.39232 | 32574 ft | 482 kts | 199° |
| 2026-04-21 22:28 | 23.50789 | 55.38273 | 32902 ft | 484 kts | 199° |
| 2026-04-21 22:28 | 23.47520 | 55.37307 | 33212 ft | 487 kts | 199° |
| 2026-04-21 22:28 | 23.44249 | 55.36339 | 33526 ft | 489 kts | 199° |
| 2026-04-21 22:29 | 23.40944 | 55.35363 | 33779 ft | 493 kts | 200° |
| 2026-04-21 22:29 | 23.37620 | 55.34380 | 33997 ft | 496 kts | 200° |
| 2026-04-21 22:29 | 23.34280 | 55.33394 | 34311 ft | 498 kts | 200° |
| 2026-04-21 22:29 | 23.30975 | 55.32420 | 34667 ft | 498 kts | 200° |
| 2026-04-21 22:30 | 23.27635 | 55.31436 | 35062 ft | 497 kts | 200° |
| 2026-04-21 22:30 | 23.24299 | 55.30453 | 35436 ft | 496 kts | 200° |
| 2026-04-21 22:30 | 23.20958 | 55.29469 | 35750 ft | 498 kts | 201° |
| 2026-04-21 22:31 | 23.14234 | 55.27480 | 35759 ft | 497 kts | 202° |
| 2026-04-21 22:31 | 23.11051 | 55.26121 | 35748 ft | 490 kts | 213° |
| 2026-04-21 22:31 | 23.08165 | 55.24206 | 35751 ft | 482 kts | 223° |
| 2026-04-21 22:32 | 23.03570 | 55.19096 | 35752 ft | 467 kts | 240° |
| 2026-04-21 22:32 | 23.00776 | 55.12854 | 35747 ft | 456 kts | 257° |
| 2026-04-21 22:33 | 22.99417 | 55.06161 | 35747 ft | 454 kts | 261° |
| 2026-04-21 22:33 | 22.98090 | 54.99458 | 35752 ft | 454 kts | 261° |
| 2026-04-21 22:34 | 22.96768 | 54.92797 | 35754 ft | 454 kts | 261° |
| 2026-04-21 22:34 | 22.95440 | 54.86103 | 35750 ft | 453 kts | 261° |
| 2026-04-21 22:35 | 22.94112 | 54.79417 | 35744 ft | 453 kts | 261° |
| 2026-04-21 22:35 | 22.92780 | 54.72731 | 35763 ft | 452 kts | 261° |
| 2026-04-21 22:36 | 22.90794 | 54.62784 | 35743 ft | 451 kts | 261° |
| 2026-04-21 22:36 | 22.89461 | 54.56128 | 35743 ft | 451 kts | 261° |
| 2026-04-21 22:37 | 22.88128 | 54.49487 | 35742 ft | 451 kts | 262° |
| 2026-04-21 22:37 | 22.87017 | 54.43965 | 35765 ft | 450 kts | 262° |
| 2026-04-21 22:38 | 22.85682 | 54.37344 | 35748 ft | 450 kts | 262° |
| 2026-04-21 22:38 | 22.84344 | 54.30718 | 35749 ft | 450 kts | 262° |
| 2026-04-21 22:39 | 22.83001 | 54.24082 | 35768 ft | 450 kts | 262° |
| 2026-04-21 22:39 | 22.81656 | 54.17457 | 35752 ft | 449 kts | 262° |
| 2026-04-21 22:40 | 22.80312 | 54.10841 | 35754 ft | 449 kts | 262° |
| 2026-04-21 22:40 | 22.78967 | 54.04240 | 35752 ft | 448 kts | 262° |
| 2026-04-21 22:41 | 22.77625 | 53.97650 | 35776 ft | 447 kts | 262° |
| 2026-04-21 22:41 | 22.76352 | 53.91104 | 35757 ft | 446 kts | 262° |
| 2026-04-21 22:42 | 22.75077 | 53.84526 | 35762 ft | 445 kts | 262° |
| 2026-04-21 22:42 | 22.73797 | 53.77973 | 35746 ft | 444 kts | 262° |
| 2026-04-21 22:43 | 22.72513 | 53.71426 | 35772 ft | 443 kts | 262° |
| 2026-04-21 22:43 | 22.71231 | 53.64906 | 35756 ft | 442 kts | 262° |
| 2026-04-21 22:44 | 22.69949 | 53.58399 | 35752 ft | 441 kts | 262° |
| 2026-04-21 22:44 | 22.68668 | 53.51914 | 35741 ft | 440 kts | 262° |
| 2026-04-21 22:45 | 22.67395 | 53.45481 | 35758 ft | 440 kts | 261° |
| 2026-04-21 22:45 | 22.66109 | 53.38991 | 35739 ft | 440 kts | 261° |
| 2026-04-21 22:46 | 22.64820 | 53.32501 | 35743 ft | 440 kts | 261° |
| 2026-04-21 22:46 | 22.63527 | 53.26011 | 35742 ft | 441 kts | 261° |
| 2026-04-21 22:47 | 22.62232 | 53.19524 | 35745 ft | 441 kts | 261° |
| 2026-04-21 22:47 | 22.60936 | 53.13039 | 35745 ft | 441 kts | 261° |
| 2026-04-21 22:48 | 22.59643 | 53.06589 | 35749 ft | 441 kts | 261° |
| 2026-04-21 22:48 | 22.58340 | 53.00104 | 35748 ft | 441 kts | 261° |
| 2026-04-21 22:49 | 22.57034 | 52.93616 | 35756 ft | 441 kts | 261° |
| 2026-04-21 22:49 | 22.55727 | 52.87142 | 35753 ft | 440 kts | 261° |
| 2026-04-21 22:50 | 22.54419 | 52.80674 | 35745 ft | 440 kts | 261° |
| 2026-04-21 22:50 | 22.53110 | 52.74214 | 35755 ft | 439 kts | 261° |
| 2026-04-21 22:51 | 22.51800 | 52.67761 | 35750 ft | 438 kts | 261° |
| 2026-04-21 22:51 | 22.50490 | 52.61324 | 35746 ft | 438 kts | 261° |
| 2026-04-21 22:52 | 22.49177 | 52.54890 | 35746 ft | 437 kts | 261° |
| 2026-04-21 22:52 | 22.47865 | 52.48472 | 35747 ft | 437 kts | 262° |
| 2026-04-21 22:53 | 22.46554 | 52.42068 | 35743 ft | 436 kts | 262° |
| 2026-04-21 22:53 | 22.45248 | 52.35707 | 35742 ft | 436 kts | 262° |
| 2026-04-21 22:54 | 22.43932 | 52.29307 | 35741 ft | 436 kts | 262° |
| 2026-04-21 22:54 | 22.42616 | 52.22920 | 35743 ft | 435 kts | 262° |
| 2026-04-21 22:55 | 22.41346 | 52.16523 | 35742 ft | 433 kts | 265° |
| 2026-04-21 22:55 | 22.40852 | 52.10065 | 35742 ft | 429 kts | 273° |
| 2026-04-21 22:56 | 22.41174 | 52.03677 | 35750 ft | 428 kts | 276° |
| 2026-04-21 22:56 | 22.41567 | 51.97267 | 35766 ft | 428 kts | 276° |
| 2026-04-21 22:57 | 22.41952 | 51.90843 | 35752 ft | 428 kts | 276° |
| 2026-04-21 22:57 | 22.42338 | 51.84422 | 35751 ft | 428 kts | 276° |
| 2026-04-21 22:58 | 22.42722 | 51.78006 | 35785 ft | 427 kts | 276° |
| 2026-04-21 22:58 | 22.43103 | 51.71611 | 35778 ft | 426 kts | 276° |
| 2026-04-21 22:59 | 22.43481 | 51.65220 | 35778 ft | 425 kts | 276° |
| 2026-04-21 22:59 | 22.43856 | 51.58839 | 35766 ft | 425 kts | 275° |
| 2026-04-21 23:00 | 22.44225 | 51.52507 | 35789 ft | 424 kts | 276° |
| 2026-04-21 23:00 | 22.44594 | 51.46142 | 35794 ft | 423 kts | 276° |
| 2026-04-21 23:01 | 22.44959 | 51.39794 | 35777 ft | 423 kts | 276° |
| 2026-04-21 23:01 | 22.45321 | 51.33451 | 35784 ft | 423 kts | 276° |
| 2026-04-21 23:02 | 22.45681 | 51.27111 | 35784 ft | 422 kts | 276° |
| 2026-04-21 23:02 | 22.46038 | 51.20783 | 35778 ft | 421 kts | 276° |
| 2026-04-21 23:03 | 22.46391 | 51.14470 | 35781 ft | 420 kts | 276° |
| 2026-04-21 23:03 | 22.46743 | 51.08153 | 35780 ft | 420 kts | 276° |
| 2026-04-21 23:04 | 22.47090 | 51.01845 | 35777 ft | 420 kts | 276° |
| 2026-04-21 23:04 | 22.47437 | 50.95532 | 35777 ft | 420 kts | 276° |
| 2026-04-21 23:05 | 22.47778 | 50.89261 | 35780 ft | 421 kts | 276° |
| 2026-04-21 23:05 | 22.48120 | 50.82943 | 35799 ft | 421 kts | 275° |
| 2026-04-21 23:06 | 22.48459 | 50.76628 | 35796 ft | 421 kts | 275° |
| 2026-04-21 23:06 | 22.48795 | 50.70315 | 35797 ft | 420 kts | 275° |
| 2026-04-21 23:07 | 22.49129 | 50.63995 | 35790 ft | 420 kts | 275° |
| 2026-04-21 23:07 | 22.49460 | 50.57694 | 35796 ft | 419 kts | 275° |
| 2026-04-21 23:08 | 22.49788 | 50.51410 | 35789 ft | 418 kts | 275° |
| 2026-04-21 23:08 | 22.50111 | 50.45168 | 35779 ft | 418 kts | 275° |
| 2026-04-21 23:09 | 22.50432 | 50.38897 | 35791 ft | 417 kts | 275° |
| 2026-04-21 23:09 | 22.50751 | 50.32634 | 35787 ft | 416 kts | 275° |
| 2026-04-21 23:10 | 22.51067 | 50.26386 | 35787 ft | 416 kts | 275° |
| 2026-04-21 23:10 | 22.51380 | 50.20139 | 35785 ft | 416 kts | 275° |
| 2026-04-21 23:11 | 22.51692 | 50.13886 | 35787 ft | 415 kts | 275° |
| 2026-04-21 23:11 | 22.52000 | 50.07649 | 35790 ft | 415 kts | 275° |
| 2026-04-21 23:12 | 22.52303 | 50.01455 | 35789 ft | 415 kts | 275° |
| 2026-04-21 23:12 | 22.52607 | 49.95216 | 35788 ft | 415 kts | 275° |
| 2026-04-21 23:13 | 22.52907 | 49.88975 | 35794 ft | 415 kts | 275° |
| 2026-04-21 23:13 | 22.53206 | 49.82731 | 35790 ft | 415 kts | 275° |
| 2026-04-21 23:14 | 22.53503 | 49.76494 | 35790 ft | 415 kts | 275° |
| 2026-04-21 23:14 | 22.54053 | 49.70287 | 35790 ft | 414 kts | 278° |
| 2026-04-21 23:15 | 22.54703 | 49.64085 | 35794 ft | 415 kts | 277° |
| 2026-04-21 23:15 | 22.55310 | 49.57872 | 35797 ft | 415 kts | 277° |
| 2026-04-21 23:16 | 22.55899 | 49.51657 | 35786 ft | 415 kts | 277° |
| 2026-04-21 23:16 | 22.56483 | 49.45451 | 35800 ft | 415 kts | 277° |
| 2026-04-21 23:17 | 22.57063 | 49.39270 | 35798 ft | 415 kts | 277° |
| 2026-04-21 23:17 | 22.57643 | 49.33056 | 35798 ft | 415 kts | 277° |
| 2026-04-21 23:18 | 22.58222 | 49.26844 | 35794 ft | 415 kts | 277° |
| 2026-04-21 23:18 | 22.58797 | 49.20630 | 35796 ft | 415 kts | 277° |
| 2026-04-21 23:19 | 22.59370 | 49.14421 | 35793 ft | 415 kts | 277° |
| 2026-04-21 23:19 | 22.59941 | 49.08213 | 35794 ft | 414 kts | 277° |
| 2026-04-21 23:20 | 22.60509 | 49.02006 | 35792 ft | 414 kts | 277° |
| 2026-04-21 23:20 | 22.60979 | 48.96847 | 35792 ft | 414 kts | 277° |
| 2026-04-21 23:21 | 22.61542 | 48.90638 | 35789 ft | 414 kts | 277° |
| 2026-04-21 23:21 | 22.62195 | 48.83416 | 35803 ft | 414 kts | 276° |
| 2026-04-21 23:22 | 22.62660 | 48.78252 | 35800 ft | 414 kts | 276° |
| 2026-04-21 23:22 | 22.63216 | 48.72050 | 35799 ft | 414 kts | 276° |
| 2026-04-21 23:23 | 22.63772 | 48.65810 | 35799 ft | 414 kts | 276° |
| 2026-04-21 23:23 | 22.64318 | 48.59661 | 35801 ft | 413 kts | 276° |
| 2026-04-21 23:24 | 22.64865 | 48.53478 | 35796 ft | 412 kts | 276° |
| 2026-04-21 23:24 | 22.65410 | 48.47291 | 35801 ft | 412 kts | 276° |
| 2026-04-21 23:25 | 22.65952 | 48.41108 | 35797 ft | 412 kts | 276° |
| 2026-04-21 23:25 | 22.66491 | 48.34926 | 35798 ft | 412 kts | 276° |
| 2026-04-21 23:26 | 22.67028 | 48.28741 | 35798 ft | 412 kts | 276° |
| 2026-04-21 23:26 | 22.67560 | 48.22600 | 35820 ft | 412 kts | 276° |
| 2026-04-21 23:27 | 22.68092 | 48.16422 | 35817 ft | 411 kts | 276° |
| 2026-04-21 23:27 | 22.68620 | 48.10256 | 35813 ft | 411 kts | 276° |
| 2026-04-21 23:28 | 22.69147 | 48.04096 | 35812 ft | 411 kts | 276° |
| 2026-04-21 23:28 | 22.69667 | 47.97940 | 35814 ft | 410 kts | 276° |
| 2026-04-21 23:29 | 22.70183 | 47.91783 | 35813 ft | 410 kts | 276° |
| 2026-04-21 23:29 | 22.70697 | 47.85635 | 35813 ft | 410 kts | 276° |
| 2026-04-21 23:30 | 22.71209 | 47.79488 | 35815 ft | 410 kts | 276° |
| 2026-04-21 23:30 | 22.71719 | 47.73332 | 35823 ft | 410 kts | 276° |
| 2026-04-21 23:31 | 22.72227 | 47.67174 | 35828 ft | 410 kts | 276° |
| 2026-04-21 23:31 | 22.72732 | 47.61018 | 35839 ft | 410 kts | 276° |
| 2026-04-21 23:32 | 22.73235 | 47.54862 | 35848 ft | 410 kts | 276° |
| 2026-04-21 23:32 | 22.73733 | 47.48744 | 35851 ft | 410 kts | 276° |
| 2026-04-21 23:33 | 22.74231 | 47.42592 | 35848 ft | 409 kts | 276° |
| 2026-04-21 23:33 | 22.74726 | 47.36451 | 35846 ft | 409 kts | 276° |
| 2026-04-21 23:34 | 22.75218 | 47.30310 | 35846 ft | 409 kts | 276° |
| 2026-04-21 23:34 | 22.75707 | 47.24174 | 35851 ft | 409 kts | 276° |
| 2026-04-21 23:35 | 22.76196 | 47.18021 | 35853 ft | 409 kts | 275° |
| 2026-04-21 23:35 | 22.76684 | 47.11874 | 35852 ft | 409 kts | 275° |
| 2026-04-21 23:36 | 22.77170 | 47.05763 | 35877 ft | 409 kts | 275° |
| 2026-04-21 23:36 | 22.77659 | 46.99578 | 35868 ft | 410 kts | 275° |
| 2026-04-21 23:37 | 22.78140 | 46.93456 | 35866 ft | 410 kts | 275° |
| 2026-04-21 23:37 | 22.78622 | 46.87298 | 35866 ft | 410 kts | 275° |
| 2026-04-21 23:38 | 22.79100 | 46.81147 | 35872 ft | 410 kts | 275° |
| 2026-04-21 23:38 | 22.79577 | 46.74994 | 35872 ft | 410 kts | 275° |
| 2026-04-21 23:39 | 22.80051 | 46.68839 | 35873 ft | 409 kts | 275° |
| 2026-04-21 23:39 | 22.80522 | 46.62694 | 35872 ft | 410 kts | 275° |
| 2026-04-21 23:40 | 22.80992 | 46.56535 | 35872 ft | 410 kts | 275° |
| 2026-04-21 23:40 | 22.81459 | 46.50381 | 35875 ft | 410 kts | 275° |
| 2026-04-21 23:41 | 22.81921 | 46.44265 | 35883 ft | 410 kts | 275° |
| 2026-04-21 23:41 | 22.82383 | 46.38109 | 35878 ft | 410 kts | 275° |
| 2026-04-21 23:42 | 22.82840 | 46.31956 | 35867 ft | 409 kts | 275° |
| 2026-04-21 23:42 | 22.83294 | 46.25805 | 35864 ft | 409 kts | 275° |
| 2026-04-21 23:43 | 22.83747 | 46.19659 | 35852 ft | 409 kts | 275° |
| 2026-04-21 23:43 | 22.84196 | 46.13510 | 35848 ft | 408 kts | 275° |
| 2026-04-21 23:44 | 22.84641 | 46.07369 | 35842 ft | 409 kts | 275° |
| 2026-04-21 23:44 | 22.85087 | 46.01224 | 35844 ft | 409 kts | 275° |
| 2026-04-21 23:45 | 22.85750 | 45.92002 | 35849 ft | 409 kts | 275° |
| 2026-04-21 23:46 | 22.86187 | 45.85890 | 35838 ft | 409 kts | 275° |
| 2026-04-21 23:46 | 22.86625 | 45.79713 | 35830 ft | 408 kts | 275° |
| 2026-04-21 23:47 | 22.87055 | 45.73621 | 35822 ft | 408 kts | 275° |
| 2026-04-21 23:47 | 22.87486 | 45.67486 | 35828 ft | 407 kts | 275° |
| 2026-04-21 23:48 | 22.87913 | 45.61361 | 35824 ft | 407 kts | 275° |
| 2026-04-21 23:48 | 22.88340 | 45.55229 | 35820 ft | 407 kts | 274° |
| 2026-04-21 23:49 | 22.88763 | 45.49097 | 35823 ft | 407 kts | 274° |
| 2026-04-21 23:49 | 22.89184 | 45.42968 | 35830 ft | 408 kts | 274° |
| 2026-04-21 23:50 | 22.89603 | 45.36832 | 35847 ft | 408 kts | 274° |
| 2026-04-21 23:50 | 22.90019 | 45.30698 | 35844 ft | 408 kts | 274° |
| 2026-04-21 23:51 | 22.90433 | 45.24569 | 35849 ft | 408 kts | 274° |
| 2026-04-21 23:51 | 22.90842 | 45.18469 | 35837 ft | 408 kts | 274° |
| 2026-04-21 23:52 | 22.91252 | 45.12333 | 35843 ft | 407 kts | 274° |
| 2026-04-21 23:52 | 22.91660 | 45.06196 | 35840 ft | 407 kts | 274° |
| 2026-04-21 23:53 | 22.92063 | 45.00066 | 35843 ft | 407 kts | 274° |
| 2026-04-21 23:53 | 22.92465 | 44.93924 | 35841 ft | 408 kts | 274° |
| 2026-04-21 23:54 | 22.92865 | 44.87777 | 35845 ft | 408 kts | 274° |
| 2026-04-21 23:54 | 22.93264 | 44.81630 | 35849 ft | 408 kts | 274° |
| 2026-04-21 23:55 | 22.93655 | 44.75521 | 35853 ft | 408 kts | 274° |
| 2026-04-21 23:55 | 22.94139 | 44.69385 | 35850 ft | 408 kts | 277° |
| 2026-04-21 23:56 | 22.95357 | 44.63362 | 35856 ft | 410 kts | 284° |
| 2026-04-21 23:56 | 22.97169 | 44.57484 | 35860 ft | 410 kts | 286° |
| 2026-04-21 23:57 | 22.98976 | 44.51613 | 35861 ft | 410 kts | 286° |
| 2026-04-21 23:57 | 23.00772 | 44.45770 | 35862 ft | 410 kts | 286° |
| 2026-04-21 23:58 | 23.02579 | 44.39897 | 35867 ft | 410 kts | 286° |
| 2026-04-21 23:58 | 23.04380 | 44.34038 | 35870 ft | 409 kts | 285° |
| 2026-04-21 23:59 | 23.06179 | 44.28176 | 35862 ft | 409 kts | 285° |
| 2026-04-21 23:59 | 23.07976 | 44.22314 | 35867 ft | 409 kts | 285° |
| 2026-04-22 00:00 | 23.09770 | 44.16450 | 35878 ft | 408 kts | 285° |
| 2026-04-22 00:00 | 23.11554 | 44.10602 | 35881 ft | 407 kts | 285° |
| 2026-04-22 00:01 | 23.13334 | 44.04763 | 35864 ft | 407 kts | 285° |
| 2026-04-22 00:01 | 23.14818 | 43.99903 | 35865 ft | 407 kts | 285° |
| 2026-04-22 00:02 | 23.16596 | 43.94063 | 35868 ft | 407 kts | 285° |
| 2026-04-22 00:02 | 23.18661 | 43.87267 | 35878 ft | 408 kts | 285° |
| 2026-04-22 00:03 | 23.20149 | 43.82361 | 35889 ft | 408 kts | 285° |
| 2026-04-22 00:03 | 23.21911 | 43.76543 | 35885 ft | 408 kts | 285° |
| 2026-04-22 00:04 | 23.23687 | 43.70671 | 35894 ft | 408 kts | 285° |
| 2026-04-22 00:04 | 23.25460 | 43.64800 | 35899 ft | 408 kts | 285° |
| 2026-04-22 00:05 | 23.27233 | 43.58921 | 35903 ft | 409 kts | 285° |
| 2026-04-22 00:05 | 23.29005 | 43.53039 | 35906 ft | 409 kts | 285° |
| 2026-04-22 00:06 | 23.30772 | 43.47162 | 35915 ft | 409 kts | 285° |
| 2026-04-22 00:06 | 23.32537 | 43.41282 | 35923 ft | 409 kts | 285° |
| 2026-04-22 00:07 | 23.34291 | 43.35432 | 35919 ft | 408 kts | 285° |
| 2026-04-22 00:07 | 23.36052 | 43.29551 | 35924 ft | 408 kts | 285° |
| 2026-04-22 00:08 | 23.37805 | 43.23686 | 35926 ft | 408 kts | 285° |
| 2026-04-22 00:08 | 23.39560 | 43.17809 | 35932 ft | 408 kts | 285° |
| 2026-04-22 00:09 | 23.41309 | 43.11934 | 35932 ft | 408 kts | 285° |
| 2026-04-22 00:09 | 23.43044 | 43.06089 | 35938 ft | 408 kts | 285° |
| 2026-04-22 00:10 | 23.44790 | 43.00199 | 35951 ft | 408 kts | 285° |
| 2026-04-22 00:10 | 23.46531 | 42.94315 | 35950 ft | 408 kts | 285° |
| 2026-04-22 00:11 | 23.48269 | 42.88432 | 35948 ft | 408 kts | 285° |
| 2026-04-22 00:11 | 23.50003 | 42.82556 | 35946 ft | 408 kts | 285° |
| 2026-04-22 00:12 | 23.51735 | 42.76676 | 35945 ft | 407 kts | 285° |
| 2026-04-22 00:12 | 23.53467 | 42.70797 | 35943 ft | 407 kts | 285° |
| 2026-04-22 00:13 | 23.55202 | 42.64905 | 35943 ft | 407 kts | 285° |
| 2026-04-22 00:13 | 23.56933 | 42.59020 | 35946 ft | 407 kts | 285° |
| 2026-04-22 00:14 | 23.58649 | 42.53171 | 35945 ft | 407 kts | 285° |
| 2026-04-22 00:14 | 23.60375 | 42.47284 | 35944 ft | 407 kts | 285° |
| 2026-04-22 00:15 | 23.62094 | 42.41409 | 35947 ft | 407 kts | 285° |
| 2026-04-22 00:15 | 23.63816 | 42.35515 | 35948 ft | 407 kts | 285° |
| 2026-04-22 00:16 | 23.65532 | 42.29630 | 35949 ft | 407 kts | 284° |
| 2026-04-22 00:16 | 23.67246 | 42.23735 | 35949 ft | 407 kts | 284° |
| 2026-04-22 00:17 | 23.68941 | 42.17882 | 35949 ft | 407 kts | 284° |
| 2026-04-22 00:17 | 23.70649 | 42.11979 | 35951 ft | 408 kts | 284° |
| 2026-04-22 00:18 | 23.72355 | 42.06075 | 35952 ft | 407 kts | 284° |
| 2026-04-22 00:18 | 23.74058 | 42.00172 | 35951 ft | 407 kts | 284° |
| 2026-04-22 00:19 | 23.75759 | 41.94277 | 35952 ft | 407 kts | 284° |
| 2026-04-22 00:19 | 23.77463 | 41.88385 | 35950 ft | 407 kts | 284° |
| 2026-04-22 00:20 | 23.79164 | 41.82492 | 35952 ft | 407 kts | 284° |
| 2026-04-22 00:20 | 23.80851 | 41.76633 | 35960 ft | 407 kts | 284° |
| 2026-04-22 00:21 | 23.82546 | 41.70731 | 35950 ft | 407 kts | 284° |
| 2026-04-22 00:21 | 23.84235 | 41.64840 | 35949 ft | 406 kts | 284° |
| 2026-04-22 00:22 | 23.85921 | 41.58951 | 35946 ft | 406 kts | 284° |
| 2026-04-22 00:22 | 23.87602 | 41.53063 | 35945 ft | 406 kts | 284° |
| 2026-04-22 00:23 | 23.89278 | 41.47159 | 35947 ft | 406 kts | 284° |
| 2026-04-22 00:23 | 23.90951 | 41.41259 | 35950 ft | 406 kts | 284° |
| 2026-04-22 00:24 | 23.92622 | 41.35358 | 35950 ft | 406 kts | 284° |
| 2026-04-22 00:24 | 23.94298 | 41.29449 | 35951 ft | 407 kts | 284° |
| 2026-04-22 00:25 | 23.95963 | 41.23575 | 35949 ft | 407 kts | 284° |
| 2026-04-22 00:25 | 23.97633 | 41.17670 | 35948 ft | 406 kts | 284° |
| 2026-04-22 00:26 | 23.99301 | 41.11765 | 35957 ft | 406 kts | 284° |
| 2026-04-22 00:26 | 24.00966 | 41.05858 | 35948 ft | 406 kts | 284° |
| 2026-04-22 00:27 | 24.02628 | 40.99953 | 35933 ft | 406 kts | 284° |
| 2026-04-22 00:27 | 24.04290 | 40.94039 | 35932 ft | 406 kts | 284° |
| 2026-04-22 00:28 | 24.05949 | 40.88126 | 35942 ft | 406 kts | 284° |
| 2026-04-22 00:28 | 24.07605 | 40.82215 | 35943 ft | 406 kts | 284° |
| 2026-04-22 00:29 | 24.09255 | 40.76317 | 35939 ft | 405 kts | 284° |
| 2026-04-22 00:29 | 24.10902 | 40.70418 | 35938 ft | 405 kts | 284° |
| 2026-04-22 00:30 | 24.12540 | 40.64544 | 35939 ft | 405 kts | 284° |
| 2026-04-22 00:30 | 24.14183 | 40.58642 | 35947 ft | 405 kts | 284° |
| 2026-04-22 00:31 | 24.15890 | 40.52753 | 35936 ft | 407 kts | 287° |
| 2026-04-22 00:31 | 24.18271 | 40.47105 | 35947 ft | 411 kts | 293° |
| 2026-04-22 00:32 | 24.20940 | 40.41576 | 35946 ft | 410 kts | 292° |
| 2026-04-22 00:32 | 24.23592 | 40.36028 | 35938 ft | 410 kts | 292° |
| 2026-04-22 00:33 | 24.26245 | 40.30480 | 35936 ft | 411 kts | 292° |
| 2026-04-22 00:33 | 24.28895 | 40.24938 | 35949 ft | 410 kts | 292° |
| 2026-04-22 00:34 | 24.31531 | 40.19421 | 35940 ft | 411 kts | 292° |
| 2026-04-22 00:34 | 24.34177 | 40.13874 | 35941 ft | 411 kts | 292° |
| 2026-04-22 00:35 | 24.36827 | 40.08314 | 35938 ft | 411 kts | 292° |
| 2026-04-22 00:35 | 24.39471 | 40.02761 | 35956 ft | 411 kts | 292° |
| 2026-04-22 00:36 | 24.42113 | 39.97202 | 35942 ft | 411 kts | 292° |
| 2026-04-22 00:36 | 24.44756 | 39.91637 | 35941 ft | 411 kts | 292° |
| 2026-04-22 00:37 | 24.47390 | 39.86082 | 35941 ft | 411 kts | 292° |
| 2026-04-22 00:37 | 24.50030 | 39.80510 | 35954 ft | 411 kts | 292° |
| 2026-04-22 00:38 | 24.52665 | 39.74940 | 35942 ft | 411 kts | 292° |
| 2026-04-22 00:38 | 24.55285 | 39.69409 | 35940 ft | 411 kts | 293° |
| 2026-04-22 00:39 | 24.58140 | 39.63946 | 35929 ft | 412 kts | 295° |
| 2026-04-22 00:39 | 24.61037 | 39.58512 | 35922 ft | 412 kts | 295° |
| 2026-04-22 00:40 | 24.63909 | 39.53048 | 35939 ft | 413 kts | 294° |
| 2026-04-22 00:40 | 24.66774 | 39.47559 | 35951 ft | 414 kts | 294° |
| 2026-04-22 00:41 | 24.69643 | 39.42072 | 35955 ft | 414 kts | 294° |
| 2026-04-22 00:41 | 24.72508 | 39.36578 | 35943 ft | 414 kts | 294° |
| 2026-04-22 00:42 | 24.75355 | 39.31116 | 35942 ft | 414 kts | 294° |
| 2026-04-22 00:42 | 24.78215 | 39.25621 | 35931 ft | 413 kts | 294° |
| 2026-04-22 00:43 | 24.81059 | 39.20148 | 35913 ft | 412 kts | 294° |
| 2026-04-22 00:43 | 24.83901 | 39.14673 | 35909 ft | 411 kts | 294° |
| 2026-04-22 00:44 | 24.86728 | 39.09219 | 35895 ft | 410 kts | 294° |
| 2026-04-22 00:44 | 24.89556 | 39.03760 | 35890 ft | 409 kts | 294° |
| 2026-04-22 00:45 | 24.92373 | 38.98312 | 35889 ft | 409 kts | 294° |
| 2026-04-22 00:45 | 24.94716 | 38.93780 | 35879 ft | 409 kts | 294° |
| 2026-04-22 00:46 | 24.97994 | 38.87427 | 35877 ft | 411 kts | 294° |
| 2026-04-22 00:46 | 25.00823 | 38.81943 | 35895 ft | 412 kts | 294° |
| 2026-04-22 00:47 | 25.03179 | 38.77369 | 35915 ft | 413 kts | 293° |
| 2026-04-22 00:47 | 25.06012 | 38.71854 | 35914 ft | 413 kts | 293° |
| 2026-04-22 00:48 | 25.08845 | 38.66344 | 35890 ft | 413 kts | 294° |
| 2026-04-22 00:48 | 25.11679 | 38.60821 | 35892 ft | 412 kts | 294° |
| 2026-04-22 00:49 | 25.14502 | 38.55315 | 35889 ft | 412 kts | 294° |
| 2026-04-22 00:49 | 25.17320 | 38.49814 | 35880 ft | 411 kts | 294° |
| 2026-04-22 00:50 | 25.20110 | 38.44357 | 35869 ft | 410 kts | 294° |
| 2026-04-22 00:50 | 25.22916 | 38.38864 | 35868 ft | 410 kts | 294° |
| 2026-04-22 00:51 | 25.25721 | 38.33366 | 35869 ft | 410 kts | 293° |
| 2026-04-22 00:51 | 25.28522 | 38.27867 | 35866 ft | 410 kts | 293° |
| 2026-04-22 00:52 | 25.31315 | 38.22378 | 35856 ft | 409 kts | 293° |
| 2026-04-22 00:52 | 25.34107 | 38.16885 | 35866 ft | 410 kts | 293° |
| 2026-04-22 00:53 | 25.36899 | 38.11392 | 35866 ft | 410 kts | 293° |
| 2026-04-22 00:53 | 25.39666 | 38.05931 | 35863 ft | 409 kts | 293° |
| 2026-04-22 00:54 | 25.42446 | 38.00441 | 35860 ft | 409 kts | 293° |
| 2026-04-22 00:54 | 25.45229 | 37.94940 | 35854 ft | 410 kts | 293° |
| 2026-04-22 00:55 | 25.48015 | 37.89425 | 35870 ft | 410 kts | 293° |
| 2026-04-22 00:55 | 25.52195 | 37.81142 | 35875 ft | 411 kts | 293° |
| 2026-04-22 00:56 | 25.54965 | 37.75645 | 35874 ft | 411 kts | 293° |
| 2026-04-22 00:56 | 25.57750 | 37.70109 | 35884 ft | 412 kts | 293° |
| 2026-04-22 00:57 | 25.60539 | 37.64558 | 35884 ft | 412 kts | 293° |
| 2026-04-22 00:57 | 25.63328 | 37.59002 | 35897 ft | 412 kts | 293° |
| 2026-04-22 00:58 | 25.66112 | 37.53450 | 35888 ft | 412 kts | 293° |
| 2026-04-22 00:58 | 25.68894 | 37.47896 | 35883 ft | 411 kts | 293° |
| 2026-04-22 00:59 | 25.71666 | 37.42353 | 35871 ft | 411 kts | 293° |
| 2026-04-22 00:59 | 25.74439 | 37.36800 | 35886 ft | 411 kts | 293° |
| 2026-04-22 01:00 | 25.77205 | 37.31257 | 35861 ft | 410 kts | 293° |
| 2026-04-22 01:00 | 25.79949 | 37.25751 | 35855 ft | 410 kts | 293° |
| 2026-04-22 01:01 | 25.82705 | 37.20211 | 35856 ft | 409 kts | 292° |
| 2026-04-22 01:01 | 25.85456 | 37.14677 | 35851 ft | 409 kts | 292° |
| 2026-04-22 01:02 | 25.88204 | 37.09142 | 35852 ft | 409 kts | 292° |
| 2026-04-22 01:02 | 25.90950 | 37.03604 | 35846 ft | 409 kts | 292° |
| 2026-04-22 01:03 | 25.93695 | 36.98062 | 35853 ft | 409 kts | 292° |
| 2026-04-22 01:03 | 25.96426 | 36.92541 | 35844 ft | 410 kts | 292° |
| 2026-04-22 01:04 | 25.99182 | 36.86960 | 35844 ft | 410 kts | 292° |
| 2026-04-22 01:04 | 26.01908 | 36.81435 | 35842 ft | 410 kts | 292° |
| 2026-04-22 01:05 | 26.04648 | 36.75876 | 35837 ft | 410 kts | 292° |
| 2026-04-22 01:05 | 26.07386 | 36.70314 | 35852 ft | 410 kts | 292° |
| 2026-04-22 01:06 | 26.10122 | 36.64747 | 35842 ft | 410 kts | 292° |
| 2026-04-22 01:06 | 26.12856 | 36.59181 | 35830 ft | 410 kts | 292° |
| 2026-04-22 01:07 | 26.15587 | 36.53615 | 35818 ft | 410 kts | 292° |
| 2026-04-22 01:07 | 26.18721 | 36.48250 | 35817 ft | 418 kts | 300° |
| 2026-04-22 01:08 | 26.22656 | 36.43397 | 35823 ft | 424 kts | 305° |
| 2026-04-22 01:08 | 26.26764 | 36.38672 | 35826 ft | 424 kts | 305° |
| 2026-04-22 01:09 | 26.30833 | 36.33969 | 35826 ft | 425 kts | 305° |
| 2026-04-22 01:09 | 26.34943 | 36.29225 | 35831 ft | 425 kts | 305° |
| 2026-04-22 01:10 | 26.39059 | 36.24471 | 35849 ft | 426 kts | 305° |
| 2026-04-22 01:10 | 26.43179 | 36.19707 | 35842 ft | 426 kts | 305° |
| 2026-04-22 01:11 | 26.47301 | 36.14936 | 35844 ft | 426 kts | 305° |
| 2026-04-22 01:11 | 26.51416 | 36.10168 | 35844 ft | 426 kts | 305° |
| 2026-04-22 01:12 | 26.55506 | 36.05423 | 35843 ft | 426 kts | 305° |
| 2026-04-22 01:12 | 26.59617 | 36.00649 | 35843 ft | 426 kts | 305° |
| 2026-04-22 01:13 | 26.63729 | 35.95869 | 35846 ft | 426 kts | 305° |
| 2026-04-22 01:13 | 26.67835 | 35.91088 | 35843 ft | 427 kts | 305° |
| 2026-04-22 01:14 | 26.71949 | 35.86296 | 35844 ft | 427 kts | 305° |
| 2026-04-22 01:14 | 26.76061 | 35.81498 | 35843 ft | 426 kts | 305° |
| 2026-04-22 01:15 | 26.80162 | 35.76709 | 35845 ft | 426 kts | 305° |
| 2026-04-22 01:15 | 26.84274 | 35.71902 | 35846 ft | 427 kts | 305° |
| 2026-04-22 01:16 | 26.88353 | 35.67129 | 35846 ft | 427 kts | 305° |
| 2026-04-22 01:16 | 26.92459 | 35.62319 | 35846 ft | 426 kts | 305° |
| 2026-04-22 01:17 | 26.96558 | 35.57512 | 35846 ft | 427 kts | 305° |
| 2026-04-22 01:17 | 27.00660 | 35.52695 | 35846 ft | 426 kts | 305° |
| 2026-04-22 01:18 | 27.04758 | 35.47877 | 35844 ft | 428 kts | 305° |
| 2026-04-22 01:18 | 27.08865 | 35.43043 | 35851 ft | 428 kts | 305° |
| 2026-04-22 01:19 | 27.12978 | 35.38198 | 35852 ft | 428 kts | 305° |
| 2026-04-22 01:19 | 27.17087 | 35.33353 | 35855 ft | 428 kts | 305° |
| 2026-04-22 01:20 | 27.21196 | 35.28500 | 35854 ft | 428 kts | 305° |
| 2026-04-22 01:20 | 27.25275 | 35.23678 | 35862 ft | 428 kts | 305° |
| 2026-04-22 01:21 | 27.29378 | 35.18822 | 35859 ft | 428 kts | 305° |
| 2026-04-22 01:21 | 27.33480 | 35.13962 | 35861 ft | 428 kts | 305° |
| 2026-04-22 01:22 | 27.37573 | 35.09106 | 35860 ft | 427 kts | 305° |
| 2026-04-22 01:22 | 27.41664 | 35.04246 | 35862 ft | 429 kts | 305° |
| 2026-04-22 01:23 | 27.45772 | 34.99361 | 35865 ft | 429 kts | 305° |
| 2026-04-22 01:23 | 27.49882 | 34.94469 | 35869 ft | 430 kts | 305° |
| 2026-04-22 01:24 | 27.54187 | 34.89734 | 35876 ft | 434 kts | 308° |
| 2026-04-22 01:24 | 27.58604 | 34.85081 | 35878 ft | 434 kts | 308° |
| 2026-04-22 01:25 | 27.62985 | 34.80448 | 35886 ft | 434 kts | 308° |
| 2026-04-22 01:25 | 27.67389 | 34.75786 | 35886 ft | 434 kts | 308° |
| 2026-04-22 01:26 | 27.71792 | 34.71121 | 35890 ft | 434 kts | 308° |
| 2026-04-22 01:26 | 27.76201 | 34.66444 | 35893 ft | 434 kts | 308° |
| 2026-04-22 01:27 | 27.80614 | 34.61757 | 35891 ft | 435 kts | 308° |
| 2026-04-22 01:27 | 27.85028 | 34.57065 | 35896 ft | 435 kts | 308° |
| 2026-04-22 01:28 | 27.88697 | 34.53160 | 35923 ft | 435 kts | 308° |
| 2026-04-22 01:28 | 27.93814 | 34.47707 | 35927 ft | 435 kts | 308° |
| 2026-04-22 01:29 | 27.97511 | 34.43768 | 35911 ft | 435 kts | 308° |
| 2026-04-22 01:29 | 28.01602 | 34.38868 | 35912 ft | 427 kts | 301° |
| 2026-04-22 01:30 | 28.05350 | 34.33652 | 35909 ft | 427 kts | 302° |
| 2026-04-22 01:30 | 28.09130 | 34.28438 | 35913 ft | 427 kts | 302° |
| 2026-04-22 01:31 | 28.12895 | 34.23230 | 35927 ft | 427 kts | 302° |
| 2026-04-22 01:31 | 28.16658 | 34.18004 | 35938 ft | 428 kts | 302° |
| 2026-04-22 01:32 | 28.20422 | 34.12777 | 35941 ft | 428 kts | 302° |
| 2026-04-22 01:32 | 28.24179 | 34.07564 | 35958 ft | 427 kts | 302° |
| 2026-04-22 01:33 | 28.27930 | 34.02335 | 35955 ft | 426 kts | 302° |
| 2026-04-22 01:33 | 28.31677 | 33.97113 | 35940 ft | 427 kts | 302° |
| 2026-04-22 01:34 | 28.35440 | 33.91855 | 35963 ft | 429 kts | 302° |
| 2026-04-22 01:34 | 28.39215 | 33.86587 | 35970 ft | 430 kts | 302° |
| 2026-04-22 01:35 | 28.42972 | 33.81328 | 35972 ft | 431 kts | 302° |
| 2026-04-22 01:35 | 28.46754 | 33.76031 | 35940 ft | 431 kts | 302° |
| 2026-04-22 01:36 | 28.50532 | 33.70735 | 35954 ft | 431 kts | 302° |
| 2026-04-22 01:36 | 28.54300 | 33.65445 | 35969 ft | 431 kts | 302° |
| 2026-04-22 01:37 | 28.58082 | 33.60141 | 35953 ft | 431 kts | 302° |
| 2026-04-22 01:37 | 28.61862 | 33.54834 | 35959 ft | 432 kts | 302° |
| 2026-04-22 01:38 | 28.65639 | 33.49518 | 35961 ft | 432 kts | 302° |
| 2026-04-22 01:38 | 28.69413 | 33.44193 | 35962 ft | 432 kts | 302° |
| 2026-04-22 01:39 | 28.73161 | 33.38899 | 35969 ft | 432 kts | 302° |
| 2026-04-22 01:39 | 28.76924 | 33.33577 | 35970 ft | 431 kts | 302° |
| 2026-04-22 01:40 | 28.80680 | 33.28258 | 35962 ft | 430 kts | 302° |
| 2026-04-22 01:40 | 28.84435 | 33.22933 | 35964 ft | 430 kts | 302° |
| 2026-04-22 01:41 | 28.88185 | 33.17610 | 35971 ft | 430 kts | 302° |
| 2026-04-22 01:41 | 28.91938 | 33.12274 | 35971 ft | 431 kts | 302° |
| 2026-04-22 01:42 | 28.95696 | 33.06924 | 35977 ft | 431 kts | 302° |
| 2026-04-22 01:42 | 28.99423 | 33.01612 | 35981 ft | 431 kts | 302° |
| 2026-04-22 01:43 | 29.03175 | 32.96258 | 35992 ft | 432 kts | 302° |
| 2026-04-22 01:43 | 29.06932 | 32.90889 | 35996 ft | 432 kts | 302° |
| 2026-04-22 01:44 | 29.10684 | 32.85521 | 35996 ft | 432 kts | 302° |
| 2026-04-22 01:44 | 29.14438 | 32.80144 | 36002 ft | 433 kts | 302° |
| 2026-04-22 01:45 | 29.18191 | 32.74760 | 36001 ft | 433 kts | 302° |
| 2026-04-22 01:45 | 29.21946 | 32.69365 | 36006 ft | 433 kts | 302° |
| 2026-04-22 01:46 | 29.25675 | 32.64003 | 36007 ft | 433 kts | 302° |
| 2026-04-22 01:46 | 29.29422 | 32.58605 | 36006 ft | 433 kts | 302° |
| 2026-04-22 01:47 | 29.33148 | 32.53180 | 36016 ft | 433 kts | 302° |
| 2026-04-22 01:47 | 29.36878 | 32.47736 | 36012 ft | 434 kts | 302° |
| 2026-04-22 01:48 | 29.40612 | 32.42287 | 36015 ft | 435 kts | 302° |
| 2026-04-22 01:48 | 29.44351 | 32.36824 | 36017 ft | 435 kts | 302° |
| 2026-04-22 01:49 | 29.48089 | 32.31356 | 36019 ft | 436 kts | 302° |
| 2026-04-22 01:49 | 29.51832 | 32.25874 | 36030 ft | 436 kts | 302° |
| 2026-04-22 01:50 | 29.55547 | 32.20426 | 36030 ft | 435 kts | 302° |
| 2026-04-22 01:50 | 29.59282 | 32.14941 | 36035 ft | 435 kts | 302° |
| 2026-04-22 01:51 | 29.63010 | 32.09458 | 36035 ft | 435 kts | 302° |
| 2026-04-22 01:51 | 29.66735 | 32.03970 | 36033 ft | 435 kts | 302° |
| 2026-04-22 01:52 | 29.70467 | 31.98467 | 36041 ft | 436 kts | 302° |
| 2026-04-22 01:52 | 29.74192 | 31.92967 | 36040 ft | 436 kts | 302° |
| 2026-04-22 01:53 | 29.77924 | 31.87448 | 36036 ft | 437 kts | 302° |
| 2026-04-22 01:53 | 29.81584 | 31.81864 | 36040 ft | 436 kts | 301° |
| 2026-04-22 01:54 | 29.85140 | 31.76266 | 36036 ft | 436 kts | 301° |
| 2026-04-22 01:54 | 29.88734 | 31.70638 | 36038 ft | 436 kts | 301° |
| 2026-04-22 01:55 | 29.92340 | 31.65003 | 36036 ft | 436 kts | 301° |
| 2026-04-22 01:55 | 29.95966 | 31.59400 | 36032 ft | 436 kts | 302° |
| 2026-04-22 01:56 | 29.99594 | 31.53797 | 36025 ft | 436 kts | 301° |
| 2026-04-22 01:56 | 30.03222 | 31.48178 | 36024 ft | 436 kts | 302° |
| 2026-04-22 01:57 | 30.06847 | 31.42553 | 36024 ft | 437 kts | 302° |
| 2026-04-22 01:57 | 30.10812 | 31.37175 | 36022 ft | 443 kts | 309° |
| 2026-04-22 01:58 | 30.15321 | 31.32343 | 36048 ft | 445 kts | 311° |
| 2026-04-22 01:58 | 30.19857 | 31.27457 | 36023 ft | 446 kts | 311° |
| 2026-04-22 01:59 | 30.24400 | 31.22564 | 36039 ft | 447 kts | 311° |
| 2026-04-22 01:59 | 30.28957 | 31.17657 | 36042 ft | 447 kts | 311° |
| 2026-04-22 02:00 | 30.33510 | 31.12748 | 36046 ft | 447 kts | 311° |
| 2026-04-22 02:00 | 30.38057 | 31.07840 | 36050 ft | 447 kts | 311° |
| 2026-04-22 02:01 | 30.42611 | 31.02917 | 36047 ft | 447 kts | 311° |
| 2026-04-22 02:01 | 30.47158 | 30.97994 | 36051 ft | 447 kts | 311° |
| 2026-04-22 02:02 | 30.51706 | 30.93064 | 36041 ft | 448 kts | 311° |
| 2026-04-22 02:02 | 30.56238 | 30.88146 | 36044 ft | 449 kts | 311° |
| 2026-04-22 02:03 | 30.60800 | 30.83189 | 36045 ft | 449 kts | 311° |
| 2026-04-22 02:03 | 30.65355 | 30.78232 | 36045 ft | 449 kts | 311° |
| 2026-04-22 02:04 | 30.72188 | 30.70783 | 36041 ft | 449 kts | 311° |
| 2026-04-22 02:05 | 30.76736 | 30.65816 | 36049 ft | 448 kts | 311° |
| 2026-04-22 02:05 | 30.81252 | 30.60879 | 36044 ft | 448 kts | 311° |
| 2026-04-22 02:06 | 30.85801 | 30.55897 | 36025 ft | 449 kts | 311° |
| 2026-04-22 02:06 | 30.90356 | 30.50903 | 36024 ft | 449 kts | 311° |
| 2026-04-22 02:07 | 30.94909 | 30.45903 | 36043 ft | 449 kts | 311° |
| 2026-04-22 02:07 | 30.99437 | 30.40925 | 36040 ft | 449 kts | 311° |
| 2026-04-22 02:08 | 31.04010 | 30.35890 | 36019 ft | 450 kts | 311° |
| 2026-04-22 02:08 | 31.08028 | 30.30452 | 36022 ft | 442 kts | 299° |
| 2026-04-22 02:09 | 31.10816 | 30.24115 | 36037 ft | 437 kts | 288° |
| 2026-04-22 02:09 | 31.12669 | 30.17369 | 36034 ft | 436 kts | 285° |
| 2026-04-22 02:10 | 31.14527 | 30.10618 | 36058 ft | 436 kts | 285° |
| 2026-04-22 02:10 | 31.16363 | 30.03896 | 36035 ft | 437 kts | 285° |
| 2026-04-22 02:11 | 31.18431 | 29.97205 | 36047 ft | 439 kts | 291° |
| 2026-04-22 02:11 | 31.21400 | 29.90927 | 36063 ft | 444 kts | 300° |
| 2026-04-22 02:12 | 31.24417 | 29.86058 | 36045 ft | 445 kts | 302° |
| 2026-04-22 02:12 | 31.28060 | 29.80208 | 36051 ft | 446 kts | 302° |
| 2026-04-22 02:13 | 31.32307 | 29.73377 | 36039 ft | 447 kts | 302° |
| 2026-04-22 02:13 | 31.35374 | 29.68446 | 36041 ft | 447 kts | 302° |
| 2026-04-22 02:14 | 31.39034 | 29.62555 | 36036 ft | 448 kts | 302° |
| 2026-04-22 02:14 | 31.42672 | 29.56691 | 36037 ft | 448 kts | 302° |
| 2026-04-22 02:15 | 31.46350 | 29.50752 | 36037 ft | 448 kts | 302° |
| 2026-04-22 02:15 | 31.49988 | 29.44870 | 36038 ft | 448 kts | 302° |
| 2026-04-22 02:16 | 31.53639 | 29.38958 | 36038 ft | 447 kts | 302° |
| 2026-04-22 02:16 | 31.57289 | 29.33039 | 36032 ft | 447 kts | 302° |
| 2026-04-22 02:17 | 31.60932 | 29.27117 | 36032 ft | 447 kts | 302° |
| 2026-04-22 02:17 | 31.64535 | 29.21233 | 36029 ft | 447 kts | 302° |
| 2026-04-22 02:18 | 31.68167 | 29.15297 | 36049 ft | 447 kts | 302° |
| 2026-04-22 02:18 | 31.71868 | 29.09415 | 36034 ft | 449 kts | 306° |
| 2026-04-22 02:19 | 31.76288 | 29.04160 | 36033 ft | 455 kts | 315° |
| 2026-04-22 02:19 | 31.81208 | 28.99440 | 36032 ft | 456 kts | 316° |
| 2026-04-22 02:20 | 31.86105 | 28.94702 | 36029 ft | 456 kts | 316° |
| 2026-04-22 02:20 | 31.90981 | 28.89990 | 36028 ft | 456 kts | 316° |
| 2026-04-22 02:21 | 31.95887 | 28.85249 | 36030 ft | 456 kts | 316° |
| 2026-04-22 02:21 | 32.00793 | 28.80501 | 36029 ft | 456 kts | 316° |
| 2026-04-22 02:22 | 32.05704 | 28.75742 | 36036 ft | 457 kts | 316° |
| 2026-04-22 02:22 | 32.10609 | 28.70982 | 36033 ft | 456 kts | 316° |
| 2026-04-22 02:23 | 32.15512 | 28.66217 | 36037 ft | 456 kts | 316° |
| 2026-04-22 02:23 | 32.20371 | 28.61488 | 36031 ft | 456 kts | 316° |
| 2026-04-22 02:24 | 32.25261 | 28.56722 | 36024 ft | 455 kts | 316° |
| 2026-04-22 02:24 | 32.30150 | 28.51949 | 36023 ft | 455 kts | 316° |
| 2026-04-22 02:25 | 32.35027 | 28.47180 | 36025 ft | 456 kts | 316° |
| 2026-04-22 02:25 | 32.39910 | 28.42401 | 36028 ft | 455 kts | 316° |
| 2026-04-22 02:26 | 32.44796 | 28.37611 | 36030 ft | 455 kts | 316° |
| 2026-04-22 02:26 | 32.49674 | 28.32822 | 36027 ft | 455 kts | 316° |
| 2026-04-22 02:27 | 32.54546 | 28.28031 | 36026 ft | 455 kts | 316° |
| 2026-04-22 02:27 | 32.59417 | 28.23236 | 36025 ft | 455 kts | 316° |
| 2026-04-22 02:28 | 32.64257 | 28.18463 | 36025 ft | 455 kts | 316° |
| 2026-04-22 02:28 | 32.69128 | 28.13652 | 36025 ft | 455 kts | 316° |
| 2026-04-22 02:29 | 32.73993 | 28.08841 | 36025 ft | 455 kts | 316° |
| 2026-04-22 02:29 | 32.78862 | 28.04019 | 36027 ft | 455 kts | 316° |
| 2026-04-22 02:30 | 32.83727 | 27.99193 | 36028 ft | 455 kts | 316° |
| 2026-04-22 02:30 | 32.88560 | 27.94392 | 36028 ft | 455 kts | 316° |
| 2026-04-22 02:31 | 32.93418 | 27.89559 | 36024 ft | 455 kts | 316° |
| 2026-04-22 02:31 | 32.98277 | 27.84717 | 36022 ft | 456 kts | 316° |
| 2026-04-22 02:32 | 33.03138 | 27.79868 | 36024 ft | 456 kts | 316° |
| 2026-04-22 02:32 | 33.08000 | 27.75010 | 36025 ft | 456 kts | 316° |
| 2026-04-22 02:33 | 33.12863 | 27.70143 | 36025 ft | 456 kts | 316° |
| 2026-04-22 02:33 | 33.17718 | 27.65276 | 36025 ft | 456 kts | 316° |
| 2026-04-22 02:34 | 33.22571 | 27.60405 | 36024 ft | 456 kts | 316° |
| 2026-04-22 02:34 | 33.27428 | 27.55523 | 36037 ft | 456 kts | 316° |
| 2026-04-22 02:35 | 33.32281 | 27.50637 | 36037 ft | 456 kts | 316° |
| 2026-04-22 02:35 | 33.37125 | 27.45751 | 36036 ft | 456 kts | 316° |
| 2026-04-22 02:36 | 33.41977 | 27.40853 | 36020 ft | 456 kts | 316° |
| 2026-04-22 02:36 | 33.46828 | 27.35947 | 36019 ft | 456 kts | 316° |
| 2026-04-22 02:37 | 33.51676 | 27.31036 | 36019 ft | 456 kts | 316° |
| 2026-04-22 02:37 | 33.56515 | 27.26127 | 36029 ft | 456 kts | 316° |
| 2026-04-22 02:38 | 33.61350 | 27.21215 | 36015 ft | 456 kts | 316° |
| 2026-04-22 02:38 | 33.66187 | 27.16292 | 36022 ft | 456 kts | 316° |
| 2026-04-22 02:39 | 33.71016 | 27.11371 | 36020 ft | 455 kts | 316° |
| 2026-04-22 02:39 | 33.75817 | 27.06471 | 36012 ft | 455 kts | 316° |
| 2026-04-22 02:40 | 33.80634 | 27.01548 | 36011 ft | 454 kts | 316° |
| 2026-04-22 02:40 | 33.85450 | 26.96617 | 36005 ft | 454 kts | 316° |
| 2026-04-22 02:41 | 33.90263 | 26.91681 | 36017 ft | 454 kts | 316° |
| 2026-04-22 02:41 | 33.95046 | 26.86772 | 36008 ft | 454 kts | 316° |
| 2026-04-22 02:42 | 33.99849 | 26.81837 | 36012 ft | 453 kts | 316° |
| 2026-04-22 02:42 | 34.04794 | 26.77099 | 36009 ft | 455 kts | 320° |
| 2026-04-22 02:43 | 34.09856 | 26.72500 | 36006 ft | 454 kts | 319° |
| 2026-04-22 02:43 | 34.14877 | 26.67868 | 36005 ft | 454 kts | 319° |
| 2026-04-22 02:44 | 34.19887 | 26.63207 | 36020 ft | 454 kts | 319° |
| 2026-04-22 02:44 | 34.24864 | 26.58566 | 36002 ft | 454 kts | 319° |
| 2026-04-22 02:45 | 34.29871 | 26.53891 | 36011 ft | 454 kts | 319° |
| 2026-04-22 02:45 | 34.34870 | 26.49216 | 36007 ft | 453 kts | 319° |
| 2026-04-22 02:46 | 34.39857 | 26.44546 | 36003 ft | 453 kts | 319° |
| 2026-04-22 02:46 | 34.44845 | 26.39867 | 35995 ft | 453 kts | 319° |
| 2026-04-22 02:47 | 34.49790 | 26.35221 | 36008 ft | 453 kts | 319° |
| 2026-04-22 02:47 | 34.54768 | 26.30538 | 36005 ft | 453 kts | 319° |
| 2026-04-22 02:48 | 34.59742 | 26.25850 | 35997 ft | 452 kts | 319° |
| 2026-04-22 02:48 | 34.64711 | 26.21160 | 35997 ft | 452 kts | 319° |
| 2026-04-22 02:49 | 34.69680 | 26.16463 | 35992 ft | 452 kts | 319° |
| 2026-04-22 02:49 | 34.74641 | 26.11765 | 35980 ft | 452 kts | 319° |
| 2026-04-22 02:50 | 34.79599 | 26.07064 | 35984 ft | 452 kts | 319° |
| 2026-04-22 02:50 | 34.84564 | 26.02348 | 35985 ft | 452 kts | 319° |
| 2026-04-22 02:51 | 34.89519 | 25.97635 | 35984 ft | 452 kts | 319° |
| 2026-04-22 02:51 | 34.94480 | 25.92908 | 35982 ft | 452 kts | 319° |
| 2026-04-22 02:52 | 34.99429 | 25.88185 | 35977 ft | 452 kts | 319° |
| 2026-04-22 02:52 | 35.04346 | 25.83485 | 35970 ft | 451 kts | 319° |
| 2026-04-22 02:53 | 35.09317 | 25.78728 | 35985 ft | 451 kts | 319° |
| 2026-04-22 02:53 | 35.14221 | 25.74009 | 35974 ft | 451 kts | 319° |
| 2026-04-22 02:54 | 35.19143 | 25.69253 | 35973 ft | 451 kts | 319° |
| 2026-04-22 02:54 | 35.24069 | 25.64496 | 35970 ft | 451 kts | 319° |
| 2026-04-22 02:55 | 35.28995 | 25.59758 | 35980 ft | 450 kts | 319° |
| 2026-04-22 02:55 | 35.33917 | 25.55013 | 35979 ft | 450 kts | 319° |
| 2026-04-22 02:56 | 35.37999 | 25.51070 | 35986 ft | 449 kts | 319° |
| 2026-04-22 02:56 | 35.43706 | 25.45548 | 35973 ft | 449 kts | 319° |
| 2026-04-22 02:57 | 35.47808 | 25.41573 | 35973 ft | 448 kts | 319° |
| 2026-04-22 02:57 | 35.52669 | 25.36855 | 35965 ft | 448 kts | 319° |
| 2026-04-22 02:58 | 35.57550 | 25.32110 | 35976 ft | 447 kts | 319° |
| 2026-04-22 02:58 | 35.62431 | 25.27358 | 35985 ft | 446 kts | 319° |
| 2026-04-22 02:59 | 35.67291 | 25.22619 | 35973 ft | 446 kts | 319° |
| 2026-04-22 02:59 | 35.72150 | 25.17872 | 35965 ft | 445 kts | 319° |
| 2026-04-22 03:00 | 35.77001 | 25.13126 | 35962 ft | 445 kts | 319° |
| 2026-04-22 03:00 | 35.81847 | 25.08378 | 35960 ft | 444 kts | 319° |
| 2026-04-22 03:01 | 35.86655 | 25.03659 | 35955 ft | 444 kts | 319° |
| 2026-04-22 03:01 | 35.91492 | 24.98904 | 35966 ft | 444 kts | 319° |
| 2026-04-22 03:02 | 35.96319 | 24.94152 | 35977 ft | 443 kts | 319° |
| 2026-04-22 03:02 | 36.01141 | 24.89395 | 35971 ft | 443 kts | 319° |
| 2026-04-22 03:03 | 36.05944 | 24.84652 | 35969 ft | 442 kts | 319° |
| 2026-04-22 03:03 | 36.10745 | 24.79899 | 35962 ft | 442 kts | 319° |
| 2026-04-22 03:04 | 36.15539 | 24.75145 | 35954 ft | 441 kts | 319° |
| 2026-04-22 03:04 | 36.20333 | 24.70384 | 35949 ft | 441 kts | 319° |
| 2026-04-22 03:05 | 36.25092 | 24.65649 | 35966 ft | 441 kts | 319° |
| 2026-04-22 03:05 | 36.29872 | 24.60886 | 35956 ft | 441 kts | 319° |
| 2026-04-22 03:06 | 36.34653 | 24.56116 | 35948 ft | 440 kts | 319° |
| 2026-04-22 03:06 | 36.39428 | 24.51342 | 35948 ft | 440 kts | 319° |
| 2026-04-22 03:07 | 36.44194 | 24.46570 | 35938 ft | 440 kts | 319° |
| 2026-04-22 03:07 | 36.48965 | 24.41786 | 35937 ft | 440 kts | 319° |
| 2026-04-22 03:08 | 36.53698 | 24.37032 | 35958 ft | 440 kts | 319° |
| 2026-04-22 03:08 | 36.58465 | 24.32235 | 35948 ft | 440 kts | 319° |
| 2026-04-22 03:09 | 36.63221 | 24.27442 | 35943 ft | 440 kts | 319° |
| 2026-04-22 03:09 | 36.67969 | 24.22649 | 35936 ft | 439 kts | 319° |
| 2026-04-22 03:10 | 36.72712 | 24.17853 | 35935 ft | 439 kts | 319° |
| 2026-04-22 03:10 | 36.77452 | 24.13053 | 35933 ft | 439 kts | 318° |
| 2026-04-22 03:11 | 36.82191 | 24.08245 | 35953 ft | 438 kts | 318° |
| 2026-04-22 03:11 | 36.86923 | 24.03438 | 35942 ft | 438 kts | 318° |
| 2026-04-22 03:12 | 36.91646 | 23.98631 | 35936 ft | 438 kts | 318° |
| 2026-04-22 03:12 | 36.98725 | 23.91418 | 35930 ft | 437 kts | 318° |
| 2026-04-22 03:13 | 37.03434 | 23.86613 | 35931 ft | 437 kts | 318° |
| 2026-04-22 03:13 | 37.08111 | 23.81832 | 35930 ft | 436 kts | 318° |
| 2026-04-22 03:14 | 37.12814 | 23.77015 | 35933 ft | 436 kts | 318° |
| 2026-04-22 03:14 | 37.17503 | 23.72206 | 35925 ft | 436 kts | 318° |
| 2026-04-22 03:15 | 37.22198 | 23.67382 | 35930 ft | 436 kts | 318° |
| 2026-04-22 03:15 | 37.26890 | 23.62553 | 35929 ft | 436 kts | 318° |
| 2026-04-22 03:16 | 37.31560 | 23.57739 | 35930 ft | 436 kts | 318° |
| 2026-04-22 03:16 | 37.36246 | 23.52899 | 35931 ft | 436 kts | 318° |
| 2026-04-22 03:17 | 37.40938 | 23.48047 | 35949 ft | 437 kts | 317° |
| 2026-04-22 03:17 | 37.45631 | 23.43184 | 35951 ft | 436 kts | 317° |
| 2026-04-22 03:18 | 37.50321 | 23.38317 | 35948 ft | 436 kts | 317° |
| 2026-04-22 03:18 | 37.54973 | 23.33481 | 35944 ft | 436 kts | 317° |
| 2026-04-22 03:19 | 37.59645 | 23.28616 | 35944 ft | 435 kts | 317° |
| 2026-04-22 03:19 | 37.64314 | 23.23746 | 35940 ft | 435 kts | 317° |
| 2026-04-22 03:20 | 37.68972 | 23.18878 | 35950 ft | 435 kts | 317° |
| 2026-04-22 03:20 | 37.73631 | 23.14003 | 35948 ft | 434 kts | 317° |
| 2026-04-22 03:21 | 37.78277 | 23.09131 | 35950 ft | 433 kts | 317° |
| 2026-04-22 03:21 | 37.82918 | 23.04258 | 35947 ft | 433 kts | 317° |
| 2026-04-22 03:22 | 37.87550 | 22.99387 | 35944 ft | 433 kts | 317° |
| 2026-04-22 03:22 | 37.92149 | 22.94541 | 35947 ft | 432 kts | 317° |
| 2026-04-22 03:23 | 37.96780 | 22.89663 | 35962 ft | 432 kts | 317° |
| 2026-04-22 03:23 | 38.01406 | 22.84800 | 35958 ft | 432 kts | 317° |
| 2026-04-22 03:24 | 38.06026 | 22.79939 | 35957 ft | 431 kts | 317° |
| 2026-04-22 03:24 | 38.10638 | 22.75076 | 35952 ft | 430 kts | 317° |
| 2026-04-22 03:25 | 38.15246 | 22.70206 | 35948 ft | 430 kts | 317° |
| 2026-04-22 03:25 | 38.19842 | 22.65339 | 35946 ft | 430 kts | 317° |
| 2026-04-22 03:26 | 38.24434 | 22.60468 | 35935 ft | 430 kts | 317° |
| 2026-04-22 03:26 | 38.28998 | 22.55620 | 35935 ft | 430 kts | 317° |
| 2026-04-22 03:27 | 38.33582 | 22.50741 | 35935 ft | 430 kts | 317° |
| 2026-04-22 03:27 | 38.38170 | 22.45850 | 35937 ft | 429 kts | 317° |
| 2026-04-22 03:28 | 38.42751 | 22.40960 | 35952 ft | 429 kts | 316° |
| 2026-04-22 03:28 | 38.47321 | 22.36072 | 35968 ft | 428 kts | 316° |
| 2026-04-22 03:29 | 38.51874 | 22.31193 | 35950 ft | 427 kts | 316° |
| 2026-04-22 03:29 | 38.56429 | 22.26303 | 35952 ft | 427 kts | 316° |
| 2026-04-22 03:30 | 38.60947 | 22.21445 | 35958 ft | 428 kts | 316° |
| 2026-04-22 03:30 | 38.65498 | 22.16544 | 35960 ft | 427 kts | 316° |
| 2026-04-22 03:31 | 38.70034 | 22.11653 | 35957 ft | 427 kts | 316° |
| 2026-04-22 03:31 | 38.74581 | 22.06745 | 35986 ft | 426 kts | 316° |
| 2026-04-22 03:32 | 38.79121 | 22.01826 | 35987 ft | 428 kts | 316° |
| 2026-04-22 03:32 | 38.83660 | 21.96902 | 35983 ft | 427 kts | 316° |
| 2026-04-22 03:33 | 38.88191 | 21.91979 | 35985 ft | 426 kts | 316° |
| 2026-04-22 03:33 | 38.92712 | 21.87058 | 35973 ft | 425 kts | 316° |
| 2026-04-22 03:34 | 38.97222 | 21.82143 | 35963 ft | 425 kts | 316° |
| 2026-04-22 03:34 | 39.01705 | 21.77250 | 35949 ft | 426 kts | 316° |
| 2026-04-22 03:35 | 39.06233 | 21.72296 | 35976 ft | 427 kts | 316° |
| 2026-04-22 03:35 | 39.10763 | 21.67337 | 35968 ft | 428 kts | 316° |
| 2026-04-22 03:36 | 39.15303 | 21.62349 | 35978 ft | 428 kts | 316° |
| 2026-04-22 03:36 | 39.19840 | 21.57355 | 35974 ft | 429 kts | 316° |
| 2026-04-22 03:37 | 39.24358 | 21.52372 | 35978 ft | 429 kts | 316° |
| 2026-04-22 03:37 | 39.28904 | 21.47363 | 35984 ft | 429 kts | 316° |
| 2026-04-22 03:38 | 39.33440 | 21.42355 | 35998 ft | 429 kts | 316° |
| 2026-04-22 03:38 | 39.37964 | 21.37341 | 35990 ft | 428 kts | 316° |
| 2026-04-22 03:39 | 39.42445 | 21.32369 | 35974 ft | 426 kts | 316° |
| 2026-04-22 03:39 | 39.46944 | 21.27370 | 35963 ft | 426 kts | 316° |
| 2026-04-22 03:40 | 39.50680 | 21.23215 | 35967 ft | 426 kts | 316° |
| 2026-04-22 03:40 | 39.55163 | 21.18215 | 35967 ft | 426 kts | 316° |
| 2026-04-22 03:41 | 39.59663 | 21.13186 | 35996 ft | 427 kts | 316° |
| 2026-04-22 03:41 | 39.64161 | 21.08157 | 35972 ft | 426 kts | 316° |
| 2026-04-22 03:42 | 39.68665 | 21.03107 | 35990 ft | 429 kts | 316° |
| 2026-04-22 03:42 | 39.73190 | 20.98025 | 36003 ft | 430 kts | 316° |
| 2026-04-22 03:43 | 39.77717 | 20.92934 | 36006 ft | 430 kts | 316° |
| 2026-04-22 03:43 | 39.82245 | 20.87831 | 36003 ft | 430 kts | 316° |
| 2026-04-22 03:44 | 39.86737 | 20.82758 | 36002 ft | 430 kts | 315° |
| 2026-04-22 03:44 | 39.91261 | 20.77641 | 35989 ft | 430 kts | 315° |
| 2026-04-22 03:45 | 39.95783 | 20.72518 | 35987 ft | 430 kts | 315° |
| 2026-04-22 03:45 | 40.00300 | 20.67390 | 35971 ft | 431 kts | 315° |
| 2026-04-22 03:46 | 40.04821 | 20.62254 | 35970 ft | 430 kts | 315° |
| 2026-04-22 03:46 | 40.09356 | 20.57174 | 35966 ft | 431 kts | 317° |
| 2026-04-22 03:47 | 40.13860 | 20.52610 | 35967 ft | 432 kts | 318° |
| 2026-04-22 03:47 | 40.18609 | 20.47801 | 35986 ft | 435 kts | 318° |
| 2026-04-22 03:48 | 40.20991 | 20.45361 | 36507 ft | 433 kts | 318° |
| 2026-04-22 03:48 | 40.23361 | 20.42925 | 37008 ft | 433 kts | 317° |
| 2026-04-22 03:48 | 40.25728 | 20.40485 | 37494 ft | 432 kts | 317° |
| 2026-04-22 03:48 | 40.28085 | 20.38052 | 37919 ft | 433 kts | 317° |
| 2026-04-22 03:49 | 40.30448 | 20.35609 | 38354 ft | 433 kts | 317° |
| 2026-04-22 03:49 | 40.32783 | 20.33193 | 38766 ft | 433 kts | 317° |
| 2026-04-22 03:49 | 40.35158 | 20.30733 | 39039 ft | 434 kts | 317° |
| 2026-04-22 03:49 | 40.37536 | 20.28269 | 39306 ft | 436 kts | 317° |
| 2026-04-22 03:50 | 40.39920 | 20.25796 | 39528 ft | 439 kts | 317° |
| 2026-04-22 03:50 | 40.42322 | 20.23301 | 39773 ft | 440 kts | 317° |
| 2026-04-22 03:50 | 40.44737 | 20.20792 | 39927 ft | 445 kts | 318° |
| 2026-04-22 03:50 | 40.47157 | 20.18277 | 39937 ft | 440 kts | 317° |
| 2026-04-22 03:51 | 40.51929 | 20.13312 | 39948 ft | 438 kts | 317° |
| 2026-04-22 03:51 | 40.56696 | 20.08336 | 39934 ft | 436 kts | 317° |
| 2026-04-22 03:52 | 40.61454 | 20.03362 | 39933 ft | 437 kts | 317° |
| 2026-04-22 03:52 | 40.66180 | 19.98411 | 39942 ft | 436 kts | 317° |
| 2026-04-22 03:53 | 40.70911 | 19.93446 | 39923 ft | 434 kts | 317° |
| 2026-04-22 03:53 | 40.75616 | 19.88502 | 39896 ft | 431 kts | 317° |
| 2026-04-22 03:54 | 40.80297 | 19.83571 | 39894 ft | 430 kts | 317° |
| 2026-04-22 03:54 | 40.84965 | 19.78646 | 39889 ft | 428 kts | 317° |
| 2026-04-22 03:55 | 40.89613 | 19.73732 | 39909 ft | 427 kts | 317° |
| 2026-04-22 03:55 | 40.94282 | 19.68783 | 39935 ft | 437 kts | 317° |
| 2026-04-22 03:56 | 40.99026 | 19.63751 | 39935 ft | 435 kts | 317° |
| 2026-04-22 03:56 | 41.03752 | 19.58729 | 39941 ft | 436 kts | 317° |
| 2026-04-22 03:57 | 41.08477 | 19.53695 | 39941 ft | 436 kts | 317° |
| 2026-04-22 03:57 | 41.13198 | 19.48658 | 39941 ft | 436 kts | 317° |
| 2026-04-22 03:58 | 41.17921 | 19.43608 | 39929 ft | 436 kts | 317° |
| 2026-04-22 03:58 | 41.22611 | 19.38585 | 39938 ft | 436 kts | 317° |
| 2026-04-22 03:59 | 41.27336 | 19.33513 | 39947 ft | 437 kts | 317° |
| 2026-04-22 03:59 | 41.32062 | 19.28431 | 39948 ft | 437 kts | 317° |
| 2026-04-22 04:00 | 41.36788 | 19.23340 | 39956 ft | 437 kts | 317° |
| 2026-04-22 04:00 | 41.41517 | 19.18234 | 39942 ft | 438 kts | 317° |
| 2026-04-22 04:01 | 41.46253 | 19.13112 | 39936 ft | 438 kts | 317° |
| 2026-04-22 04:01 | 41.50981 | 19.07989 | 39943 ft | 438 kts | 317° |
| 2026-04-22 04:02 | 41.55683 | 19.02884 | 39962 ft | 438 kts | 317° |
| 2026-04-22 04:02 | 41.60414 | 18.97737 | 39963 ft | 438 kts | 317° |
| 2026-04-22 04:03 | 41.65144 | 18.92581 | 39965 ft | 438 kts | 317° |
| 2026-04-22 04:03 | 41.69875 | 18.87414 | 39964 ft | 438 kts | 317° |
| 2026-04-22 04:04 | 41.74599 | 18.82245 | 39963 ft | 438 kts | 317° |
| 2026-04-22 04:04 | 41.79325 | 18.77063 | 39959 ft | 438 kts | 317° |
| 2026-04-22 04:05 | 41.84043 | 18.71880 | 39964 ft | 438 kts | 317° |
| 2026-04-22 04:05 | 41.88760 | 18.66687 | 39964 ft | 439 kts | 317° |
| 2026-04-22 04:06 | 41.93485 | 18.61476 | 39968 ft | 439 kts | 317° |
| 2026-04-22 04:06 | 41.98207 | 18.56261 | 39968 ft | 439 kts | 317° |
| 2026-04-22 04:07 | 42.02739 | 18.50867 | 39970 ft | 437 kts | 312° |
| 2026-04-22 04:07 | 42.06961 | 18.44978 | 39968 ft | 437 kts | 311° |
| 2026-04-22 04:08 | 42.11213 | 18.39120 | 39968 ft | 436 kts | 311° |
| 2026-04-22 04:08 | 42.15447 | 18.33264 | 39955 ft | 438 kts | 311° |
| 2026-04-22 04:09 | 42.19664 | 18.27410 | 39952 ft | 438 kts | 311° |
| 2026-04-22 04:09 | 42.23909 | 18.21500 | 39959 ft | 438 kts | 311° |
| 2026-04-22 04:10 | 42.28156 | 18.15572 | 39970 ft | 439 kts | 311° |
| 2026-04-22 04:10 | 42.32409 | 18.09620 | 39976 ft | 440 kts | 311° |
| 2026-04-22 04:11 | 42.36662 | 18.03656 | 39983 ft | 440 kts | 311° |
| 2026-04-22 04:11 | 42.40893 | 17.97711 | 39984 ft | 441 kts | 311° |
| 2026-04-22 04:12 | 42.45150 | 17.91718 | 39976 ft | 441 kts | 311° |
| 2026-04-22 04:12 | 42.49403 | 17.85717 | 39975 ft | 441 kts | 311° |
| 2026-04-22 04:13 | 42.53657 | 17.79703 | 39975 ft | 442 kts | 311° |
| 2026-04-22 04:13 | 42.57911 | 17.73675 | 39981 ft | 441 kts | 311° |
| 2026-04-22 04:14 | 42.62123 | 17.67696 | 39997 ft | 441 kts | 311° |
| 2026-04-22 04:14 | 42.66356 | 17.61671 | 40014 ft | 440 kts | 311° |
| 2026-04-22 04:15 | 42.70576 | 17.55655 | 39999 ft | 439 kts | 311° |
| 2026-04-22 04:15 | 42.74782 | 17.49645 | 39991 ft | 438 kts | 311° |
| 2026-04-22 04:16 | 42.81072 | 17.40634 | 39993 ft | 436 kts | 311° |
| 2026-04-22 04:17 | 42.85248 | 17.34637 | 39986 ft | 436 kts | 311° |
| 2026-04-22 04:17 | 42.89390 | 17.28674 | 39985 ft | 436 kts | 311° |
| 2026-04-22 04:18 | 42.93560 | 17.22659 | 39993 ft | 436 kts | 311° |
| 2026-04-22 04:18 | 42.97724 | 17.16640 | 39996 ft | 436 kts | 311° |
| 2026-04-22 04:19 | 43.01891 | 17.10604 | 40002 ft | 437 kts | 311° |
| 2026-04-22 04:19 | 43.06062 | 17.04549 | 39989 ft | 437 kts | 311° |
| 2026-04-22 04:20 | 43.10226 | 16.98492 | 40006 ft | 437 kts | 311° |
| 2026-04-22 04:20 | 43.14386 | 16.92428 | 40010 ft | 437 kts | 311° |
| 2026-04-22 04:21 | 43.18555 | 16.86337 | 39984 ft | 439 kts | 310° |
| 2026-04-22 04:21 | 43.22715 | 16.80247 | 39988 ft | 441 kts | 310° |
| 2026-04-22 04:22 | 43.26911 | 16.74090 | 39996 ft | 443 kts | 310° |
| 2026-04-22 04:22 | 43.31122 | 16.67898 | 40015 ft | 444 kts | 310° |
| 2026-04-22 04:23 | 43.35342 | 16.61680 | 40022 ft | 445 kts | 310° |
| 2026-04-22 04:23 | 43.39565 | 16.55444 | 40033 ft | 446 kts | 310° |
| 2026-04-22 04:24 | 43.43795 | 16.49182 | 40026 ft | 447 kts | 311° |
| 2026-04-22 04:24 | 43.48025 | 16.42909 | 40026 ft | 447 kts | 311° |
| 2026-04-22 04:25 | 43.51566 | 16.37645 | 40025 ft | 447 kts | 311° |
| 2026-04-22 04:25 | 43.55763 | 16.31395 | 40024 ft | 447 kts | 311° |
| 2026-04-22 04:26 | 43.59981 | 16.25099 | 40031 ft | 447 kts | 311° |
| 2026-04-22 04:26 | 43.64201 | 16.18786 | 40032 ft | 447 kts | 311° |
| 2026-04-22 04:27 | 43.68412 | 16.12472 | 40033 ft | 446 kts | 311° |
| 2026-04-22 04:27 | 43.72617 | 16.06152 | 40034 ft | 446 kts | 311° |
| 2026-04-22 04:28 | 43.76822 | 15.99821 | 40034 ft | 446 kts | 311° |
| 2026-04-22 04:28 | 43.81018 | 15.93488 | 40032 ft | 446 kts | 311° |
| 2026-04-22 04:29 | 43.85212 | 15.87143 | 40034 ft | 446 kts | 311° |
| 2026-04-22 04:29 | 43.89369 | 15.80839 | 40056 ft | 446 kts | 311° |
| 2026-04-22 04:30 | 43.93581 | 15.74439 | 40043 ft | 446 kts | 310° |
| 2026-04-22 04:30 | 43.97735 | 15.68112 | 40042 ft | 446 kts | 310° |
| 2026-04-22 04:31 | 44.01906 | 15.61745 | 40052 ft | 445 kts | 310° |
| 2026-04-22 04:31 | 44.06077 | 15.55364 | 40049 ft | 445 kts | 310° |
| 2026-04-22 04:32 | 44.10239 | 15.48981 | 40049 ft | 445 kts | 310° |
| 2026-04-22 04:32 | 44.14398 | 15.42591 | 40068 ft | 445 kts | 310° |
| 2026-04-22 04:33 | 44.18533 | 15.36222 | 40052 ft | 445 kts | 310° |
| 2026-04-22 04:33 | 44.22687 | 15.29808 | 40051 ft | 445 kts | 310° |
| 2026-04-22 04:34 | 44.26832 | 15.23395 | 40052 ft | 445 kts | 310° |
| 2026-04-22 04:34 | 44.30974 | 15.16971 | 40064 ft | 445 kts | 310° |
| 2026-04-22 04:35 | 44.35117 | 15.10531 | 40067 ft | 445 kts | 310° |
| 2026-04-22 04:35 | 44.39250 | 15.04091 | 40076 ft | 445 kts | 310° |
| 2026-04-22 04:36 | 44.43386 | 14.97633 | 40053 ft | 445 kts | 310° |
| 2026-04-22 04:36 | 44.47487 | 14.91215 | 40049 ft | 445 kts | 310° |
| 2026-04-22 04:37 | 44.51618 | 14.84735 | 40057 ft | 446 kts | 310° |
| 2026-04-22 04:37 | 44.55748 | 14.78242 | 40077 ft | 446 kts | 310° |
| 2026-04-22 04:38 | 44.59877 | 14.71734 | 40083 ft | 446 kts | 310° |
| 2026-04-22 04:38 | 44.64009 | 14.65208 | 40084 ft | 447 kts | 310° |
| 2026-04-22 04:39 | 44.68138 | 14.58671 | 40072 ft | 447 kts | 310° |
| 2026-04-22 04:39 | 44.72247 | 14.52150 | 40059 ft | 447 kts | 310° |
| 2026-04-22 04:40 | 44.76369 | 14.45593 | 40072 ft | 447 kts | 310° |
| 2026-04-22 04:40 | 44.80482 | 14.39035 | 40078 ft | 447 kts | 310° |
| 2026-04-22 04:41 | 44.84596 | 14.32461 | 40093 ft | 447 kts | 310° |
| 2026-04-22 04:41 | 44.88699 | 14.25889 | 40084 ft | 447 kts | 310° |
| 2026-04-22 04:42 | 44.92806 | 14.19293 | 40076 ft | 447 kts | 310° |
| 2026-04-22 04:42 | 44.96885 | 14.12728 | 40077 ft | 447 kts | 310° |
| 2026-04-22 04:43 | 45.00992 | 14.06103 | 40079 ft | 448 kts | 310° |
| 2026-04-22 04:43 | 45.05091 | 13.99475 | 40086 ft | 448 kts | 310° |
| 2026-04-22 04:44 | 45.09189 | 13.92833 | 40077 ft | 448 kts | 310° |
| 2026-04-22 04:44 | 45.13290 | 13.86170 | 40091 ft | 449 kts | 310° |
| 2026-04-22 04:45 | 45.17388 | 13.79496 | 40098 ft | 450 kts | 310° |
| 2026-04-22 04:45 | 45.21494 | 13.72793 | 40104 ft | 450 kts | 310° |
| 2026-04-22 04:46 | 45.25599 | 13.66076 | 40112 ft | 451 kts | 310° |
| 2026-04-22 04:46 | 45.29704 | 13.59341 | 40121 ft | 451 kts | 310° |
| 2026-04-22 04:47 | 45.33805 | 13.52597 | 40123 ft | 451 kts | 310° |
| 2026-04-22 04:47 | 45.37881 | 13.45885 | 40127 ft | 451 kts | 310° |
| 2026-04-22 04:48 | 45.41983 | 13.39118 | 40116 ft | 452 kts | 310° |
| 2026-04-22 04:48 | 45.46087 | 13.32332 | 40116 ft | 452 kts | 310° |
| 2026-04-22 04:49 | 45.50224 | 13.25570 | 40121 ft | 452 kts | 313° |
| 2026-04-22 04:49 | 45.54799 | 13.19390 | 40121 ft | 453 kts | 316° |
| 2026-04-22 04:50 | 45.59417 | 13.13242 | 40128 ft | 454 kts | 315° |
| 2026-04-22 04:50 | 45.63983 | 13.07007 | 40128 ft | 455 kts | 315° |
| 2026-04-22 04:51 | 45.68544 | 13.00721 | 40112 ft | 455 kts | 315° |
| 2026-04-22 04:51 | 45.73096 | 12.94429 | 40101 ft | 455 kts | 315° |
| 2026-04-22 04:52 | 45.77647 | 12.88126 | 40087 ft | 455 kts | 315° |
| 2026-04-22 04:52 | 45.82178 | 12.81837 | 40081 ft | 455 kts | 315° |
| 2026-04-22 04:53 | 45.86733 | 12.75499 | 40081 ft | 456 kts | 315° |
| 2026-04-22 04:53 | 45.91289 | 12.69144 | 40141 ft | 456 kts | 315° |
| 2026-04-22 04:54 | 45.95832 | 12.62792 | 40147 ft | 456 kts | 315° |
| 2026-04-22 04:54 | 46.00376 | 12.56423 | 40150 ft | 456 kts | 315° |
| 2026-04-22 04:55 | 46.04915 | 12.50046 | 40145 ft | 456 kts | 315° |
| 2026-04-22 04:55 | 46.09449 | 12.43660 | 40141 ft | 456 kts | 315° |
| 2026-04-22 04:56 | 46.13982 | 12.37261 | 40158 ft | 456 kts | 315° |
| 2026-04-22 04:56 | 46.18480 | 12.30895 | 40166 ft | 455 kts | 315° |
| 2026-04-22 04:57 | 46.23002 | 12.24480 | 40172 ft | 454 kts | 315° |
| 2026-04-22 04:57 | 46.27509 | 12.18071 | 40175 ft | 455 kts | 315° |
| 2026-04-22 04:58 | 46.32016 | 12.11645 | 40173 ft | 455 kts | 315° |
| 2026-04-22 04:58 | 46.36528 | 12.05196 | 40150 ft | 456 kts | 315° |
| 2026-04-22 04:59 | 46.41044 | 11.98728 | 40153 ft | 457 kts | 315° |
| 2026-04-22 04:59 | 46.45567 | 11.92229 | 40158 ft | 457 kts | 315° |
| 2026-04-22 05:00 | 46.50081 | 11.85730 | 40175 ft | 457 kts | 315° |
| 2026-04-22 05:00 | 46.54565 | 11.79258 | 40158 ft | 457 kts | 315° |
| 2026-04-22 05:01 | 46.59068 | 11.72742 | 40157 ft | 457 kts | 315° |
| 2026-04-22 05:01 | 46.63564 | 11.66221 | 40152 ft | 456 kts | 315° |
| 2026-04-22 05:02 | 46.68062 | 11.59681 | 40151 ft | 456 kts | 315° |
| 2026-04-22 05:02 | 46.72533 | 11.53164 | 40142 ft | 455 kts | 315° |
| 2026-04-22 05:03 | 46.77011 | 11.46621 | 40153 ft | 456 kts | 315° |
| 2026-04-22 05:03 | 46.81462 | 11.40101 | 40153 ft | 456 kts | 315° |
| 2026-04-22 05:04 | 46.85952 | 11.33506 | 40168 ft | 459 kts | 315° |
| 2026-04-22 05:04 | 46.90456 | 11.26874 | 40175 ft | 460 kts | 315° |
| 2026-04-22 05:05 | 46.95108 | 11.20433 | 40203 ft | 460 kts | 321° |
| 2026-04-22 05:05 | 47.00285 | 11.14891 | 40202 ft | 461 kts | 324° |
| 2026-04-22 05:06 | 47.05481 | 11.09371 | 40207 ft | 461 kts | 324° |
| 2026-04-22 05:06 | 47.10674 | 11.03853 | 40186 ft | 461 kts | 324° |
| 2026-04-22 05:07 | 47.15000 | 10.99256 | 40201 ft | 461 kts | 324° |
| 2026-04-22 05:07 | 47.20189 | 10.93733 | 40206 ft | 460 kts | 324° |
| 2026-04-22 05:08 | 47.26222 | 10.87293 | 40182 ft | 460 kts | 324° |
| 2026-04-22 05:08 | 47.30545 | 10.82667 | 40157 ft | 459 kts | 324° |
| 2026-04-22 05:09 | 47.35706 | 10.77132 | 40169 ft | 458 kts | 324° |
| 2026-04-22 05:09 | 47.40859 | 10.71590 | 40177 ft | 459 kts | 324° |
| 2026-04-22 05:10 | 47.46019 | 10.66028 | 40177 ft | 460 kts | 324° |
| 2026-04-22 05:10 | 47.51175 | 10.60457 | 40178 ft | 460 kts | 324° |
| 2026-04-22 05:11 | 47.56362 | 10.54838 | 40174 ft | 462 kts | 324° |
| 2026-04-22 05:11 | 47.61516 | 10.49241 | 40199 ft | 462 kts | 324° |
| 2026-04-22 05:12 | 47.66697 | 10.43601 | 40187 ft | 462 kts | 324° |
| 2026-04-22 05:12 | 47.71879 | 10.37945 | 40189 ft | 462 kts | 324° |
| 2026-04-22 05:13 | 47.76945 | 10.32086 | 40178 ft | 462 kts | 321° |
| 2026-04-22 05:13 | 47.81919 | 10.26030 | 40179 ft | 462 kts | 321° |
| 2026-04-22 05:14 | 47.86898 | 10.19981 | 40180 ft | 462 kts | 321° |
| 2026-04-22 05:14 | 47.91866 | 10.13910 | 40187 ft | 462 kts | 321° |
| 2026-04-22 05:15 | 47.96833 | 10.07818 | 40186 ft | 462 kts | 321° |
| 2026-04-22 05:15 | 48.01794 | 10.01715 | 40168 ft | 462 kts | 321° |
| 2026-04-22 05:16 | 48.06750 | 9.95605 | 40192 ft | 462 kts | 321° |
| 2026-04-22 05:16 | 48.11712 | 9.89471 | 40202 ft | 463 kts | 321° |
| 2026-04-22 05:17 | 48.16665 | 9.83333 | 40221 ft | 462 kts | 321° |
| 2026-04-22 05:17 | 48.21620 | 9.77175 | 40214 ft | 462 kts | 321° |
| 2026-04-22 05:18 | 48.29013 | 9.67959 | 40205 ft | 463 kts | 321° |
| 2026-04-22 05:18 | 48.33905 | 9.61653 | 40210 ft | 464 kts | 317° |
| 2026-04-22 05:19 | 48.38337 | 9.54595 | 40209 ft | 464 kts | 314° |
| 2026-04-22 05:19 | 48.42747 | 9.47492 | 40214 ft | 464 kts | 314° |
| 2026-04-22 05:20 | 48.47157 | 9.40365 | 40217 ft | 465 kts | 314° |
| 2026-04-22 05:20 | 48.51555 | 9.33210 | 40218 ft | 465 kts | 314° |
| 2026-04-22 05:21 | 48.55952 | 9.26030 | 40240 ft | 465 kts | 314° |
| 2026-04-22 05:21 | 48.60336 | 9.18851 | 40242 ft | 465 kts | 314° |
| 2026-04-22 05:22 | 48.64712 | 9.11667 | 40255 ft | 464 kts | 313° |
| 2026-04-22 05:22 | 48.69056 | 9.04513 | 40246 ft | 463 kts | 313° |
| 2026-04-22 05:23 | 48.73418 | 8.97311 | 40246 ft | 463 kts | 314° |
| 2026-04-22 05:23 | 48.77775 | 8.90099 | 40227 ft | 464 kts | 314° |
| 2026-04-22 05:24 | 48.82130 | 8.82868 | 40225 ft | 464 kts | 313° |
| 2026-04-22 05:24 | 48.86483 | 8.75620 | 40212 ft | 464 kts | 313° |
| 2026-04-22 05:25 | 48.90827 | 8.68368 | 40238 ft | 464 kts | 313° |
| 2026-04-22 05:25 | 48.95173 | 8.61095 | 40241 ft | 465 kts | 313° |
| 2026-04-22 05:26 | 48.99487 | 8.53851 | 40253 ft | 465 kts | 313° |
| 2026-04-22 05:26 | 49.03829 | 8.46542 | 40240 ft | 466 kts | 313° |
| 2026-04-22 05:27 | 49.08175 | 8.39206 | 40241 ft | 466 kts | 313° |
| 2026-04-22 05:27 | 49.12513 | 8.31864 | 40246 ft | 466 kts | 313° |
| 2026-04-22 05:28 | 49.16850 | 8.24501 | 40252 ft | 466 kts | 313° |
| 2026-04-22 05:28 | 49.21184 | 8.17123 | 40257 ft | 466 kts | 313° |
| 2026-04-22 05:29 | 49.25514 | 8.09729 | 40255 ft | 467 kts | 313° |
| 2026-04-22 05:29 | 49.29842 | 8.02318 | 40257 ft | 467 kts | 313° |
| 2026-04-22 05:30 | 49.34166 | 7.94894 | 40261 ft | 467 kts | 313° |
| 2026-04-22 05:30 | 49.38485 | 7.87456 | 40262 ft | 467 kts | 313° |
| 2026-04-22 05:31 | 49.42803 | 7.79999 | 40259 ft | 467 kts | 313° |
| 2026-04-22 05:31 | 49.47117 | 7.72526 | 40260 ft | 468 kts | 313° |
| 2026-04-22 05:32 | 49.51429 | 7.65036 | 40261 ft | 468 kts | 313° |
| 2026-04-22 05:32 | 49.55743 | 7.57521 | 40260 ft | 468 kts | 313° |
| 2026-04-22 05:33 | 49.60051 | 7.49995 | 40264 ft | 468 kts | 313° |
| 2026-04-22 05:33 | 49.64348 | 7.42465 | 40276 ft | 468 kts | 313° |
| 2026-04-22 05:34 | 49.68647 | 7.34911 | 40267 ft | 468 kts | 313° |
| 2026-04-22 05:34 | 49.72942 | 7.27341 | 40268 ft | 468 kts | 313° |
| 2026-04-22 05:35 | 49.77204 | 7.19807 | 40259 ft | 468 kts | 313° |
| 2026-04-22 05:35 | 49.81515 | 7.12165 | 40261 ft | 469 kts | 312° |
| 2026-04-22 05:36 | 49.85800 | 7.04546 | 40256 ft | 469 kts | 312° |
| 2026-04-22 05:36 | 49.90082 | 6.96911 | 40258 ft | 469 kts | 312° |
| 2026-04-22 05:37 | 49.94340 | 6.89296 | 40266 ft | 469 kts | 312° |
| 2026-04-22 05:37 | 49.98610 | 6.81637 | 40263 ft | 469 kts | 312° |
| 2026-04-22 05:38 | 50.02881 | 6.73952 | 40260 ft | 470 kts | 312° |
| 2026-04-22 05:38 | 50.07155 | 6.66240 | 40264 ft | 470 kts | 312° |
| 2026-04-22 05:39 | 50.11423 | 6.58517 | 40268 ft | 471 kts | 312° |
| 2026-04-22 05:39 | 50.15696 | 6.50768 | 40266 ft | 471 kts | 312° |
| 2026-04-22 05:40 | 50.19678 | 6.42645 | 40255 ft | 473 kts | 305° |
| 2026-04-22 05:40 | 50.23136 | 6.33912 | 40272 ft | 473 kts | 303° |
| 2026-04-22 05:41 | 50.26606 | 6.25183 | 40272 ft | 473 kts | 303° |
| 2026-04-22 05:41 | 50.30061 | 6.16423 | 40273 ft | 473 kts | 303° |
| 2026-04-22 05:42 | 50.33501 | 6.07630 | 40294 ft | 474 kts | 303° |
| 2026-04-22 05:42 | 50.36933 | 5.98820 | 40287 ft | 474 kts | 303° |
| 2026-04-22 05:43 | 50.40358 | 5.90000 | 40299 ft | 474 kts | 303° |
| 2026-04-22 05:43 | 50.43773 | 5.81176 | 40298 ft | 474 kts | 303° |
| 2026-04-22 05:44 | 50.47184 | 5.72334 | 40296 ft | 474 kts | 303° |
| 2026-04-22 05:44 | 50.50589 | 5.63476 | 40298 ft | 474 kts | 303° |
| 2026-04-22 05:45 | 50.53986 | 5.54607 | 40285 ft | 474 kts | 302° |
| 2026-04-22 05:45 | 50.57380 | 5.45718 | 40298 ft | 474 kts | 302° |
| 2026-04-22 05:46 | 50.60766 | 5.36818 | 40298 ft | 474 kts | 302° |
| 2026-04-22 05:46 | 50.64152 | 5.27888 | 40319 ft | 474 kts | 302° |
| 2026-04-22 05:47 | 50.67525 | 5.18961 | 40318 ft | 474 kts | 302° |
| 2026-04-22 05:47 | 50.70894 | 5.10012 | 40332 ft | 474 kts | 302° |
| 2026-04-22 05:48 | 50.74251 | 5.01067 | 40325 ft | 474 kts | 302° |
| 2026-04-22 05:48 | 50.77583 | 4.92156 | 40323 ft | 474 kts | 302° |
| 2026-04-22 05:49 | 50.80927 | 4.83182 | 40311 ft | 474 kts | 302° |
| 2026-04-22 05:49 | 50.84266 | 4.74191 | 40313 ft | 474 kts | 302° |
| 2026-04-22 05:50 | 50.87600 | 4.65181 | 40325 ft | 475 kts | 302° |
| 2026-04-22 05:50 | 50.90932 | 4.56145 | 40322 ft | 475 kts | 302° |
| 2026-04-22 05:51 | 50.94257 | 4.47096 | 40323 ft | 475 kts | 301° |
| 2026-04-22 05:51 | 50.97580 | 4.38021 | 40324 ft | 475 kts | 301° |
| 2026-04-22 05:52 | 51.00889 | 4.28950 | 40325 ft | 475 kts | 301° |
| 2026-04-22 05:52 | 51.03638 | 4.21393 | 40321 ft | 475 kts | 301° |
| 2026-04-22 05:53 | 51.07471 | 4.10815 | 40336 ft | 475 kts | 301° |
| 2026-04-22 05:53 | 51.10756 | 4.01714 | 40330 ft | 474 kts | 301° |
| 2026-04-22 05:54 | 51.14036 | 3.92596 | 40321 ft | 474 kts | 301° |
| 2026-04-22 05:54 | 51.16774 | 3.84957 | 40320 ft | 474 kts | 301° |
| 2026-04-22 05:55 | 51.20040 | 3.75818 | 40311 ft | 474 kts | 301° |
| 2026-04-22 05:55 | 51.23296 | 3.66686 | 40314 ft | 473 kts | 301° |
| 2026-04-22 05:56 | 51.26617 | 3.57599 | 40310 ft | 473 kts | 302° |
| 2026-04-22 05:56 | 51.29970 | 3.48626 | 40299 ft | 474 kts | 302° |
| 2026-04-22 05:57 | 51.33327 | 3.39548 | 40305 ft | 474 kts | 301° |
| 2026-04-22 05:57 | 51.36126 | 3.29973 | 40311 ft | 476 kts | 292° |
| 2026-04-22 05:58 | 51.38459 | 3.20052 | 40311 ft | 476 kts | 292° |
| 2026-04-22 05:58 | 51.40821 | 3.10131 | 40319 ft | 476 kts | 292° |
| 2026-04-22 05:59 | 51.43165 | 3.00194 | 40318 ft | 477 kts | 292° |
| 2026-04-22 05:59 | 51.45493 | 2.90259 | 40317 ft | 477 kts | 292° |
| 2026-04-22 06:00 | 51.47813 | 2.80307 | 40334 ft | 475 kts | 292° |
| 2026-04-22 06:00 | 51.50116 | 2.70383 | 40334 ft | 474 kts | 292° |
| 2026-04-22 06:01 | 51.52408 | 2.60460 | 40319 ft | 474 kts | 292° |
| 2026-04-22 06:01 | 51.54677 | 2.50593 | 40317 ft | 473 kts | 291° |
| 2026-04-22 06:02 | 51.56941 | 2.40694 | 39847 ft | 471 kts | 291° |
| 2026-04-22 06:02 | 51.58066 | 2.35755 | 39259 ft | 470 kts | 291° |
| 2026-04-22 06:02 | 51.59193 | 2.30800 | 38345 ft | 473 kts | 291° |
| 2026-04-22 06:03 | 51.60330 | 2.25805 | 37292 ft | 477 kts | 292° |
| 2026-04-22 06:03 | 51.61471 | 2.20782 | 36372 ft | 477 kts | 292° |
| 2026-04-22 06:03 | 51.62605 | 2.15773 | 35518 ft | 476 kts | 292° |
| 2026-04-22 06:03 | 51.63735 | 2.10772 | 34712 ft | 474 kts | 292° |
| 2026-04-22 06:04 | 51.64854 | 2.05801 | 33698 ft | 473 kts | 292° |
| 2026-04-22 06:04 | 51.65979 | 2.00791 | 32634 ft | 474 kts | 292° |
| 2026-04-22 06:04 | 51.67091 | 1.95817 | 31782 ft | 470 kts | 292° |
| 2026-04-22 06:04 | 51.68176 | 1.90946 | 31066 ft | 464 kts | 293° |
| 2026-04-22 06:05 | 51.69242 | 1.86142 | 30839 ft | 445 kts | 293° |
| 2026-04-22 06:05 | 51.70275 | 1.81475 | 30473 ft | 431 kts | 293° |
| 2026-04-22 06:05 | 51.71275 | 1.76973 | 29385 ft | 433 kts | 293° |
| 2026-04-22 06:05 | 51.72293 | 1.72392 | 28335 ft | 434 kts | 292° |
| 2026-04-22 06:06 | 51.73305 | 1.67803 | 27399 ft | 434 kts | 291° |
| 2026-04-22 06:06 | 51.74059 | 1.63092 | 26520 ft | 436 kts | 282° |
| 2026-04-22 06:06 | 51.74374 | 1.58224 | 25775 ft | 435 kts | 274° |
| 2026-04-22 06:06 | 51.74273 | 1.53341 | 24905 ft | 437 kts | 266° |
| 2026-04-22 06:07 | 51.73930 | 1.48458 | 24089 ft | 436 kts | 265° |
| 2026-04-22 06:07 | 51.73615 | 1.43597 | 23106 ft | 437 kts | 266° |
| 2026-04-22 06:07 | 51.73309 | 1.38783 | 22722 ft | 424 kts | 266° |
| 2026-04-22 06:07 | 51.73008 | 1.34077 | 21863 ft | 421 kts | 265° |
| 2026-04-22 06:08 | 51.72705 | 1.29364 | 21002 ft | 421 kts | 265° |
| 2026-04-22 06:08 | 51.72396 | 1.24665 | 20107 ft | 422 kts | 265° |
| 2026-04-22 06:08 | 51.72082 | 1.19938 | 19216 ft | 427 kts | 264° |
| 2026-04-22 06:08 | 51.71762 | 1.15151 | 18504 ft | 430 kts | 264° |
| 2026-04-22 06:09 | 51.71438 | 1.10360 | 17751 ft | 429 kts | 264° |
| 2026-04-22 06:09 | 51.71115 | 1.05613 | 17003 ft | 425 kts | 264° |
| 2026-04-22 06:09 | 51.70793 | 1.00897 | 16373 ft | 421 kts | 263° |
| 2026-04-22 06:09 | 51.70472 | 0.96224 | 15787 ft | 415 kts | 263° |
| 2026-04-22 06:10 | 51.70157 | 0.91661 | 15302 ft | 403 kts | 263° |
| 2026-04-22 06:10 | 51.69847 | 0.87187 | 14456 ft | 402 kts | 263° |
| 2026-04-22 06:10 | 51.69535 | 0.82727 | 13628 ft | 399 kts | 263° |
| 2026-04-22 06:10 | 51.69224 | 0.78308 | 12816 ft | 395 kts | 263° |
| 2026-04-22 06:11 | 51.68915 | 0.73925 | 11955 ft | 391 kts | 263° |
| 2026-04-22 06:11 | 51.68610 | 0.69635 | 11097 ft | 390 kts | 263° |
| 2026-04-22 06:11 | 51.68299 | 0.65284 | 10647 ft | 389 kts | 263° |
| 2026-04-22 06:11 | 51.67989 | 0.60961 | 10423 ft | 388 kts | 263° |
| 2026-04-22 06:12 | 51.67678 | 0.56646 | 10332 ft | 388 kts | 263° |
| 2026-04-22 06:12 | 51.67364 | 0.52325 | 10321 ft | 388 kts | 263° |
| 2026-04-22 06:12 | 51.67049 | 0.47995 | 10322 ft | 389 kts | 263° |
| 2026-04-22 06:12 | 51.66732 | 0.43670 | 10320 ft | 384 kts | 263° |
| 2026-04-22 06:13 | 51.66429 | 0.39538 | 10319 ft | 360 kts | 263° |
| 2026-04-22 06:13 | 51.66141 | 0.35644 | 10321 ft | 339 kts | 263° |
| 2026-04-22 06:13 | 51.65868 | 0.31969 | 10336 ft | 321 kts | 262° |
| 2026-04-22 06:13 | 51.65606 | 0.28460 | 10293 ft | 310 kts | 262° |
| 2026-04-22 06:14 | 51.65339 | 0.25071 | 10177 ft | 298 kts | 262° |
| 2026-04-22 06:14 | 51.65078 | 0.21820 | 10073 ft | 287 kts | 261° |
| 2026-04-22 06:14 | 51.64805 | 0.18733 | 9956 ft | 277 kts | 261° |
| 2026-04-22 06:14 | 51.64538 | 0.15707 | 9696 ft | 274 kts | 261° |
| 2026-04-22 06:15 | 51.64270 | 0.12663 | 9377 ft | 273 kts | 261° |
| 2026-04-22 06:15 | 51.64006 | 0.09640 | 9067 ft | 272 kts | 261° |
| 2026-04-22 06:15 | 51.63746 | 0.06630 | 8759 ft | 272 kts | 261° |
| 2026-04-22 06:15 | 51.63487 | 0.03617 | 8451 ft | 271 kts | 261° |
| 2026-04-22 06:16 | 51.63231 | 0.00622 | 8346 ft | 270 kts | 261° |
| 2026-04-22 06:16 | 51.62966 | -0.02374 | 8393 ft | 270 kts | 256° |
| 2026-04-22 06:16 | 51.62297 | -0.05160 | 8403 ft | 268 kts | 241° |
| 2026-04-22 06:16 | 51.61485 | -0.07863 | 8403 ft | 268 kts | 241° |
| 2026-04-22 06:17 | 51.60675 | -0.10562 | 8407 ft | 267 kts | 241° |
| 2026-04-22 06:17 | 51.59867 | -0.13257 | 8407 ft | 267 kts | 241° |
| 2026-04-22 06:17 | 51.59233 | -0.16071 | 8410 ft | 271 kts | 262° |
| 2026-04-22 06:17 | 51.59218 | -0.19107 | 8411 ft | 272 kts | 271° |
| 2026-04-22 06:18 | 51.59271 | -0.22048 | 8417 ft | 272 kts | 271° |
| 2026-04-22 06:18 | 51.59325 | -0.25083 | 8249 ft | 271 kts | 271° |
| 2026-04-22 06:18 | 51.59379 | -0.28111 | 8110 ft | 269 kts | 271° |
| 2026-04-22 06:18 | 51.59433 | -0.31129 | 7793 ft | 270 kts | 271° |
| 2026-04-22 06:19 | 51.59487 | -0.34146 | 7510 ft | 269 kts | 271° |
| 2026-04-22 06:19 | 51.59544 | -0.37155 | 7337 ft | 268 kts | 271° |
| 2026-04-22 06:19 | 51.59599 | -0.40155 | 7318 ft | 268 kts | 271° |
| 2026-04-22 06:19 | 51.59654 | -0.43155 | 7319 ft | 269 kts | 271° |
| 2026-04-22 06:20 | 51.59709 | -0.46177 | 7319 ft | 270 kts | 271° |
| 2026-04-22 06:20 | 51.59763 | -0.49190 | 7319 ft | 269 kts | 271° |
| 2026-04-22 06:20 | 51.59817 | -0.52199 | 7319 ft | 269 kts | 271° |
| 2026-04-22 06:20 | 51.59870 | -0.55205 | 7219 ft | 268 kts | 271° |
| 2026-04-22 06:21 | 51.59924 | -0.58217 | 6922 ft | 268 kts | 271° |
| 2026-04-22 06:21 | 51.59980 | -0.61201 | 6462 ft | 267 kts | 271° |
| 2026-04-22 06:21 | 51.60040 | -0.64186 | 5972 ft | 266 kts | 271° |
| 2026-04-22 06:21 | 51.60098 | -0.67146 | 5667 ft | 264 kts | 271° |
| 2026-04-22 06:22 | 51.60158 | -0.70105 | 5376 ft | 264 kts | 271° |
| 2026-04-22 06:22 | 51.60211 | -0.73047 | 5020 ft | 264 kts | 271° |
| 2026-04-22 06:22 | 51.60070 | -0.75955 | 4602 ft | 258 kts | 248° |
| 2026-04-22 06:22 | 51.59161 | -0.78344 | 4290 ft | 248 kts | 217° |
| 2026-04-22 06:23 | 51.57732 | -0.79609 | 4022 ft | 232 kts | 185° |
| 2026-04-22 06:23 | 51.56158 | -0.79995 | 3755 ft | 228 kts | 180° |
| 2026-04-22 06:23 | 51.54586 | -0.80329 | 3507 ft | 228 kts | 180° |
| 2026-04-22 06:23 | 51.53011 | -0.80631 | 3215 ft | 224 kts | 174° |
| 2026-04-22 06:24 | 51.50599 | -0.78435 | 2995 ft | 194 kts | 126° |
| 2026-04-22 06:24 | 51.49757 | -0.76817 | 2994 ft | 183 kts | 126° |
| 2026-04-22 06:24 | 51.48950 | -0.75274 | 3005 ft | 177 kts | 126° |
| 2026-04-22 06:25 | 51.48218 | -0.73697 | 2993 ft | 174 kts | 115° |
| 2026-04-22 06:25 | 51.47831 | -0.71902 | 2992 ft | 167 kts | 100° |
| 2026-04-22 06:25 | 51.47705 | -0.70070 | 2835 ft | 164 kts | 93° |
| 2026-04-22 06:25 | 51.47681 | -0.68245 | 2598 ft | 163 kts | 91° |
| 2026-04-22 06:26 | 51.47686 | -0.66440 | 2373 ft | 161 kts | 91° |
| 2026-04-22 06:26 | 51.47690 | -0.64642 | 2151 ft | 160 kts | 90° |
| 2026-04-22 06:26 | 51.47697 | -0.62865 | 1927 ft | 160 kts | 90° |
| 2026-04-22 06:26 | 51.47704 | -0.61066 | 1702 ft | 160 kts | 89° |
| 2026-04-22 06:27 | 51.47709 | -0.59419 | 1501 ft | 135 kts | 89° |
| 2026-04-22 06:27 | 51.47714 | -0.57978 | 1319 ft | 125 kts | 88° |
| 2026-04-22 06:27 | 51.47721 | -0.56597 | 1141 ft | 124 kts | 88° |
| 2026-04-22 06:27 | 51.47724 | -0.55224 | 967 ft | 126 kts | 88° |
| 2026-04-22 06:28 | 51.47731 | -0.53810 | 781 ft | 126 kts | 87° |
| 2026-04-22 06:28 | 51.47734 | -0.52403 | 609 ft | 126 kts | 86° |
| 2026-04-22 06:28 | 51.47741 | -0.50968 | 434 ft | 129 kts | 87° |
| 2026-04-22 06:28 | 51.47741 | -0.49513 | 246 ft | 130 kts | 87° |
| 2026-04-22 06:29 | 51.47753 | -0.48072 | 109 ft | 124 kts | 90° |
| 2026-04-22 06:29 | 51.47754 | -0.46849 | 93 ft | 109 kts | 90° |